<?xml version="1.0" encoding="UTF-8" standalone="no" ?>
<gpx xmlns="http://www.topografix.com/GPX/1/1" creator="www.plotaroute.com" version="1.1"  xmlns:xsi="http://www.w3.org/2001/XMLSchema-instance" xsi:schemaLocation="http://www.topografix.com/GPX/1/1 http://www.topografix.com/GPX/1/1/gpx.xsd">
<metadata>
<desc>Route created on plotaroute.com</desc>
</metadata>
<wpt lat="31.671606" lon="34.92478">
<time>2021-06-02T00:10:05Z</time>
<name>Плавно пов</name>
<cmt>Плавно поверните налево</cmt>
<desc>Плавно поверните налево</desc>
<sym>Left_slight</sym>
</wpt>
<wpt lat="31.671668" lon="34.926526">
<time>2021-06-02T00:10:38Z</time>
<name>Поверните </name>
<cmt>Поверните направо</cmt>
<desc>Поверните направо</desc>
<sym>Right</sym>
</wpt>
<wpt lat="31.671116" lon="34.926191">
<time>2021-06-02T00:10:51Z</time>
<name>Держитесь </name>
<cmt>Держитесь правее</cmt>
<desc>Держитесь правее</desc>
<sym>Straight</sym>
</wpt>
<wpt lat="31.66798" lon="34.92096">
<time>2021-06-02T00:13:12Z</time>
<name>Поверните </name>
<cmt>Поверните налево</cmt>
<desc>Поверните налево</desc>
<sym>Left</sym>
</wpt>
<wpt lat="31.666652" lon="34.921957">
<time>2021-06-02T00:13:48Z</time>
<name>Резко пове</name>
<cmt>Резко поверните налево</cmt>
<desc>Резко поверните налево</desc>
<sym>Left_sharp</sym>
</wpt>
<wpt lat="31.667079" lon="34.922902">
<time>2021-06-02T00:14:31Z</time>
<name>Резко пове</name>
<cmt>Резко поверните направо</cmt>
<desc>Резко поверните направо</desc>
<sym>Right_sharp</sym>
</wpt>
<wpt lat="31.667554" lon="34.922504">
<time>2021-06-02T00:14:45Z</time>
<name>Разверните</name>
<cmt>Развернитесь</cmt>
<desc>Развернитесь</desc>
<sym>Left_sharp</sym>
</wpt>
<wpt lat="31.667285" lon="34.922736">
<time>2021-06-02T00:14:53Z</time>
<name>Держитесь </name>
<cmt>Держитесь левее</cmt>
<desc>Держитесь левее</desc>
<sym>U-turn</sym>
</wpt>
<wpt lat="31.667079" lon="34.922902">
<time>2021-06-02T00:14:58Z</time>
<name>Резко пове</name>
<cmt>Резко поверните налево</cmt>
<desc>Резко поверните налево</desc>
<sym>Left_sharp</sym>
</wpt>
<wpt lat="31.666652" lon="34.921957">
<time>2021-06-02T00:15:41Z</time>
<name>Резко пове</name>
<cmt>Резко поверните направо</cmt>
<desc>Резко поверните направо</desc>
<sym>Right_sharp</sym>
</wpt>
<wpt lat="31.66798" lon="34.92096">
<time>2021-06-02T00:16:18Z</time>
<name>Резко пове</name>
<cmt>Резко поверните налево</cmt>
<desc>Резко поверните налево</desc>
<sym>Left_sharp</sym>
</wpt>
<wpt lat="31.647583" lon="34.918061">
<time>2021-06-02T00:25:56Z</time>
<name>Держитесь </name>
<cmt>Держитесь левее</cmt>
<desc>Держитесь левее</desc>
<sym>Left_slight</sym>
</wpt>
<wpt lat="31.646123" lon="34.924954">
<time>2021-06-02T00:28:58Z</time>
<name>Держитесь </name>
<cmt>Держитесь правее</cmt>
<desc>Держитесь правее</desc>
<sym>Straight</sym>
</wpt>
<wpt lat="31.646174" lon="34.925149">
<time>2021-06-02T00:29:02Z</time>
<name>Поверните </name>
<cmt>Поверните налево на 38</cmt>
<desc>Поверните налево на 38</desc>
<sym>Left</sym>
</wpt>
<wpt lat="31.646523" lon="34.925381">
<time>2021-06-02T00:29:10Z</time>
<name>Поверните </name>
<cmt>Поверните направо на 3543</cmt>
<desc>Поверните направо на 3543</desc>
<sym>Right</sym>
</wpt>
<wpt lat="31.636989" lon="34.935612">
<time>2021-06-02T00:33:51Z</time>
<name>Поверните </name>
<cmt>Поверните направо</cmt>
<desc>Поверните направо</desc>
<sym>Right</sym>
</wpt>
<wpt lat="31.635468" lon="34.936213">
<time>2021-06-02T00:34:24Z</time>
<name>Поверните </name>
<cmt>Поверните налево</cmt>
<desc>Поверните налево</desc>
<sym>Left</sym>
</wpt>
<wpt lat="31.630362" lon="34.944325">
<time>2021-06-02T00:37:20Z</time>
<name>Поверните </name>
<cmt>Поверните направо</cmt>
<desc>Поверните направо</desc>
<sym>Right</sym>
</wpt>
<wpt lat="31.623344" lon="34.932164">
<time>2021-06-02T00:41:56Z</time>
<name>Держитесь </name>
<cmt>Держитесь левее</cmt>
<desc>Держитесь левее</desc>
<sym>Left</sym>
</wpt>
<wpt lat="31.623195" lon="34.931984">
<time>2021-06-02T00:42:00Z</time>
<name>Поверните </name>
<cmt>Поверните налево</cmt>
<desc>Поверните налево</desc>
<sym>Left</sym>
</wpt>
<wpt lat="31.620575" lon="34.944115">
<time>2021-06-02T00:45:44Z</time>
<name>Поверните </name>
<cmt>Поверните направо</cmt>
<desc>Поверните направо</desc>
<sym>Right</sym>
</wpt>
<wpt lat="31.616087" lon="34.943839">
<time>2021-06-02T00:47:18Z</time>
<name>Поверните </name>
<cmt>Поверните налево</cmt>
<desc>Поверните налево</desc>
<sym>Left</sym>
</wpt>
<wpt lat="31.612227" lon="34.954108">
<time>2021-06-02T00:50:39Z</time>
<name>Резко пове</name>
<cmt>Резко поверните направо</cmt>
<desc>Резко поверните направо</desc>
<sym>Right_sharp</sym>
</wpt>
<wpt lat="31.610869" lon="34.95364">
<time>2021-06-02T00:51:09Z</time>
<name>Резко пове</name>
<cmt>Резко поверните налево</cmt>
<desc>Резко поверните налево</desc>
<sym>Left_sharp</sym>
</wpt>
<wpt lat="31.66329" lon="34.93679">
<time>2021-06-02T01:42:04Z</time>
<name>FINISH</name>
<cmt>FINISH</cmt>
<desc>FINISH</desc>
<sym>Flag, Blue</sym>
</wpt>
<trk>
<name>Britania3-34km-650m</name>
<trkseg>
<trkpt lat="31.66324" lon="34.93659">
<ele>294</ele>
<time>2021-06-02T00:00:00Z</time></trkpt>
<trkpt lat="31.66323" lon="34.93643">
<ele>292</ele>
<time>2021-06-02T00:00:03Z</time></trkpt>
<trkpt lat="31.66334" lon="34.93641">
<ele>291</ele>
<time>2021-06-02T00:00:05Z</time></trkpt>
<trkpt lat="31.66344" lon="34.93635">
<ele>291</ele>
<time>2021-06-02T00:00:07Z</time></trkpt>
<trkpt lat="31.66371" lon="34.93603">
<ele>289</ele>
<time>2021-06-02T00:00:15Z</time></trkpt>
<trkpt lat="31.66391" lon="34.93586">
<ele>289</ele>
<time>2021-06-02T00:00:20Z</time></trkpt>
<trkpt lat="31.66413" lon="34.93571">
<ele>290</ele>
<time>2021-06-02T00:00:25Z</time></trkpt>
<trkpt lat="31.66418" lon="34.93565">
<ele>290</ele>
<time>2021-06-02T00:00:26Z</time></trkpt>
<trkpt lat="31.66426" lon="34.93554">
<ele>290</ele>
<time>2021-06-02T00:00:29Z</time></trkpt>
<trkpt lat="31.66432" lon="34.93538">
<ele>290</ele>
<time>2021-06-02T00:00:32Z</time></trkpt>
<trkpt lat="31.66433" lon="34.93525">
<ele>289</ele>
<time>2021-06-02T00:00:34Z</time></trkpt>
<trkpt lat="31.6644" lon="34.93471">
<ele>288</ele>
<time>2021-06-02T00:00:43Z</time></trkpt>
<trkpt lat="31.6645" lon="34.93436">
<ele>289</ele>
<time>2021-06-02T00:00:50Z</time></trkpt>
<trkpt lat="31.66455" lon="34.93421">
<ele>290</ele>
<time>2021-06-02T00:00:52Z</time></trkpt>
<trkpt lat="31.66471" lon="34.93389">
<ele>291</ele>
<time>2021-06-02T00:00:59Z</time></trkpt>
<trkpt lat="31.66494" lon="34.93348">
<ele>289</ele>
<time>2021-06-02T00:01:07Z</time></trkpt>
<trkpt lat="31.66508" lon="34.93319">
<ele>288</ele>
<time>2021-06-02T00:01:13Z</time></trkpt>
<trkpt lat="31.6654" lon="34.93241">
<ele>283</ele>
<time>2021-06-02T00:01:28Z</time></trkpt>
<trkpt lat="31.66547" lon="34.93227">
<ele>283</ele>
<time>2021-06-02T00:01:30Z</time></trkpt>
<trkpt lat="31.66553" lon="34.9322">
<ele>282</ele>
<time>2021-06-02T00:01:32Z</time></trkpt>
<trkpt lat="31.66563" lon="34.9321">
<ele>282</ele>
<time>2021-06-02T00:01:35Z</time></trkpt>
<trkpt lat="31.66586" lon="34.93198">
<ele>281</ele>
<time>2021-06-02T00:01:40Z</time></trkpt>
<trkpt lat="31.66612" lon="34.93194">
<ele>280</ele>
<time>2021-06-02T00:01:45Z</time></trkpt>
<trkpt lat="31.66626" lon="34.93195">
<ele>280</ele>
<time>2021-06-02T00:01:48Z</time></trkpt>
<trkpt lat="31.6665" lon="34.932">
<ele>279</ele>
<time>2021-06-02T00:01:53Z</time></trkpt>
<trkpt lat="31.66664" lon="34.93208">
<ele>279</ele>
<time>2021-06-02T00:01:56Z</time></trkpt>
<trkpt lat="31.66683" lon="34.93228">
<ele>279</ele>
<time>2021-06-02T00:02:01Z</time></trkpt>
<trkpt lat="31.66727" lon="34.93301">
<ele>281</ele>
<time>2021-06-02T00:02:16Z</time></trkpt>
<trkpt lat="31.66733" lon="34.93309">
<ele>281</ele>
<time>2021-06-02T00:02:18Z</time></trkpt>
<trkpt lat="31.66751" lon="34.93328">
<ele>281</ele>
<time>2021-06-02T00:02:23Z</time></trkpt>
<trkpt lat="31.66771" lon="34.93338">
<ele>280</ele>
<time>2021-06-02T00:02:27Z</time></trkpt>
<trkpt lat="31.66815" lon="34.93258">
<ele>276</ele>
<time>2021-06-02T00:02:43Z</time></trkpt>
<trkpt lat="31.66804" lon="34.93247">
<ele>276</ele>
<time>2021-06-02T00:02:46Z</time></trkpt>
<trkpt lat="31.6681" lon="34.93235">
<ele>277</ele>
<time>2021-06-02T00:02:49Z</time></trkpt>
<trkpt lat="31.66822" lon="34.93237">
<ele>278</ele>
<time>2021-06-02T00:02:51Z</time></trkpt>
<trkpt lat="31.66845" lon="34.93265">
<ele>277</ele>
<time>2021-06-02T00:02:58Z</time></trkpt>
<trkpt lat="31.6689" lon="34.93303">
<ele>275</ele>
<time>2021-06-02T00:03:09Z</time></trkpt>
<trkpt lat="31.6691" lon="34.93307">
<ele>275</ele>
<time>2021-06-02T00:03:13Z</time></trkpt>
<trkpt lat="31.66949" lon="34.93278">
<ele>281</ele>
<time>2021-06-02T00:03:22Z</time></trkpt>
<trkpt lat="31.66991" lon="34.93274">
<ele>284</ele>
<time>2021-06-02T00:03:31Z</time></trkpt>
<trkpt lat="31.67033" lon="34.93278">
<ele>284</ele>
<time>2021-06-02T00:03:39Z</time></trkpt>
<trkpt lat="31.67096" lon="34.93352">
<ele>280</ele>
<time>2021-06-02T00:03:57Z</time></trkpt>
<trkpt lat="31.67102" lon="34.9336">
<ele>280</ele>
<time>2021-06-02T00:03:59Z</time></trkpt>
<trkpt lat="31.6715" lon="34.934">
<ele>279</ele>
<time>2021-06-02T00:04:11Z</time></trkpt>
<trkpt lat="31.67182" lon="34.93421">
<ele>278</ele>
<time>2021-06-02T00:04:18Z</time></trkpt>
<trkpt lat="31.67196" lon="34.93429">
<ele>278</ele>
<time>2021-06-02T00:04:21Z</time></trkpt>
<trkpt lat="31.67217" lon="34.93433">
<ele>278</ele>
<time>2021-06-02T00:04:25Z</time></trkpt>
<trkpt lat="31.67255" lon="34.93432">
<ele>281</ele>
<time>2021-06-02T00:04:33Z</time></trkpt>
<trkpt lat="31.67263" lon="34.9343">
<ele>282</ele>
<time>2021-06-02T00:04:34Z</time></trkpt>
<trkpt lat="31.67274" lon="34.93421">
<ele>283</ele>
<time>2021-06-02T00:04:37Z</time></trkpt>
<trkpt lat="31.67279" lon="34.93411">
<ele>284</ele>
<time>2021-06-02T00:04:39Z</time></trkpt>
<trkpt lat="31.67317" lon="34.93378">
<ele>290</ele>
<time>2021-06-02T00:04:49Z</time></trkpt>
<trkpt lat="31.67381" lon="34.93309">
<ele>296</ele>
<time>2021-06-02T00:05:06Z</time></trkpt>
<trkpt lat="31.67423" lon="34.93263">
<ele>296</ele>
<time>2021-06-02T00:05:18Z</time></trkpt>
<trkpt lat="31.6746" lon="34.93217">
<ele>300</ele>
<time>2021-06-02T00:05:28Z</time></trkpt>
<trkpt lat="31.67483" lon="34.93191">
<ele>301</ele>
<time>2021-06-02T00:05:35Z</time></trkpt>
<trkpt lat="31.67503" lon="34.93157">
<ele>302</ele>
<time>2021-06-02T00:05:42Z</time></trkpt>
<trkpt lat="31.67503" lon="34.93137">
<ele>304</ele>
<time>2021-06-02T00:05:45Z</time></trkpt>
<trkpt lat="31.67512" lon="34.93099">
<ele>307</ele>
<time>2021-06-02T00:05:52Z</time></trkpt>
<trkpt lat="31.67534" lon="34.9308">
<ele>307</ele>
<time>2021-06-02T00:05:57Z</time></trkpt>
<trkpt lat="31.67566" lon="34.93064">
<ele>307</ele>
<time>2021-06-02T00:06:04Z</time></trkpt>
<trkpt lat="31.67595" lon="34.93043">
<ele>309</ele>
<time>2021-06-02T00:06:11Z</time></trkpt>
<trkpt lat="31.67624" lon="34.93047">
<ele>310</ele>
<time>2021-06-02T00:06:17Z</time></trkpt>
<trkpt lat="31.67654" lon="34.93048">
<ele>311</ele>
<time>2021-06-02T00:06:23Z</time></trkpt>
<trkpt lat="31.67687" lon="34.93045">
<ele>313</ele>
<time>2021-06-02T00:06:30Z</time></trkpt>
<trkpt lat="31.67711" lon="34.9304">
<ele>315</ele>
<time>2021-06-02T00:06:35Z</time></trkpt>
<trkpt lat="31.67731" lon="34.93045">
<ele>316</ele>
<time>2021-06-02T00:06:39Z</time></trkpt>
<trkpt lat="31.67749" lon="34.93062">
<ele>316</ele>
<time>2021-06-02T00:06:43Z</time></trkpt>
<trkpt lat="31.6776" lon="34.93061">
<ele>316</ele>
<time>2021-06-02T00:06:45Z</time></trkpt>
<trkpt lat="31.67761" lon="34.93017">
<ele>319</ele>
<time>2021-06-02T00:06:53Z</time></trkpt>
<trkpt lat="31.67757" lon="34.92985">
<ele>321</ele>
<time>2021-06-02T00:06:59Z</time></trkpt>
<trkpt lat="31.67766" lon="34.92896">
<ele>331</ele>
<time>2021-06-02T00:07:14Z</time></trkpt>
<trkpt lat="31.67762" lon="34.92822">
<ele>335</ele>
<time>2021-06-02T00:07:26Z</time></trkpt>
<trkpt lat="31.67762" lon="34.92789">
<ele>333</ele>
<time>2021-06-02T00:07:32Z</time></trkpt>
<trkpt lat="31.67767" lon="34.92761">
<ele>332</ele>
<time>2021-06-02T00:07:37Z</time></trkpt>
<trkpt lat="31.67771" lon="34.92762">
<ele>332</ele>
<time>2021-06-02T00:07:38Z</time></trkpt>
<trkpt lat="31.67771" lon="34.9276">
<ele>332</ele>
<time>2021-06-02T00:07:38Z</time></trkpt>
<trkpt lat="31.67709" lon="34.92738">
<ele>332</ele>
<time>2021-06-02T00:07:51Z</time></trkpt>
<trkpt lat="31.67685" lon="34.92732">
<ele>332</ele>
<time>2021-06-02T00:07:56Z</time></trkpt>
<trkpt lat="31.67653" lon="34.92715">
<ele>333</ele>
<time>2021-06-02T00:08:03Z</time></trkpt>
<trkpt lat="31.67652" lon="34.92715">
<ele>333</ele>
<time>2021-06-02T00:08:03Z</time></trkpt>
<trkpt lat="31.67625" lon="34.92702">
<ele>335</ele>
<time>2021-06-02T00:08:09Z</time></trkpt>
<trkpt lat="31.67615" lon="34.92688">
<ele>335</ele>
<time>2021-06-02T00:08:12Z</time></trkpt>
<trkpt lat="31.676" lon="34.9267">
<ele>335</ele>
<time>2021-06-02T00:08:16Z</time></trkpt>
<trkpt lat="31.67584" lon="34.9266">
<ele>336</ele>
<time>2021-06-02T00:08:20Z</time></trkpt>
<trkpt lat="31.67567" lon="34.92652">
<ele>336</ele>
<time>2021-06-02T00:08:24Z</time></trkpt>
<trkpt lat="31.67549" lon="34.92647">
<ele>336</ele>
<time>2021-06-02T00:08:27Z</time></trkpt>
<trkpt lat="31.67542" lon="34.92646">
<ele>336</ele>
<time>2021-06-02T00:08:29Z</time></trkpt>
<trkpt lat="31.6751" lon="34.92639">
<ele>336</ele>
<time>2021-06-02T00:08:35Z</time></trkpt>
<trkpt lat="31.67489" lon="34.92636">
<ele>337</ele>
<time>2021-06-02T00:08:40Z</time></trkpt>
<trkpt lat="31.67469" lon="34.92625">
<ele>337</ele>
<time>2021-06-02T00:08:44Z</time></trkpt>
<trkpt lat="31.67441" lon="34.92599">
<ele>335</ele>
<time>2021-06-02T00:08:51Z</time></trkpt>
<trkpt lat="31.67419" lon="34.9257">
<ele>332</ele>
<time>2021-06-02T00:08:58Z</time></trkpt>
<trkpt lat="31.67408" lon="34.92559">
<ele>333</ele>
<time>2021-06-02T00:09:01Z</time></trkpt>
<trkpt lat="31.674" lon="34.92545">
<ele>332</ele>
<time>2021-06-02T00:09:04Z</time></trkpt>
<trkpt lat="31.67397" lon="34.92537">
<ele>332</ele>
<time>2021-06-02T00:09:05Z</time></trkpt>
<trkpt lat="31.67391" lon="34.92486">
<ele>326</ele>
<time>2021-06-02T00:09:14Z</time></trkpt>
<trkpt lat="31.67387" lon="34.92474">
<ele>325</ele>
<time>2021-06-02T00:09:16Z</time></trkpt>
<trkpt lat="31.67381" lon="34.92463">
<ele>325</ele>
<time>2021-06-02T00:09:18Z</time></trkpt>
<trkpt lat="31.67373" lon="34.92455">
<ele>325</ele>
<time>2021-06-02T00:09:20Z</time></trkpt>
<trkpt lat="31.67357" lon="34.92447">
<ele>325</ele>
<time>2021-06-02T00:09:24Z</time></trkpt>
<trkpt lat="31.6732344" lon="34.9244448">
<ele>327</ele>
<time>2021-06-02T00:09:31Z</time></trkpt>
<trkpt lat="31.673138" lon="34.924434">
<ele>327</ele>
<time>2021-06-02T00:09:33Z</time></trkpt>
<trkpt lat="31.672025" lon="34.924481">
<ele>328</ele>
<time>2021-06-02T00:09:55Z</time></trkpt>
<trkpt lat="31.671938" lon="34.924522">
<ele>328</ele>
<time>2021-06-02T00:09:57Z</time></trkpt>
<trkpt lat="31.671807" lon="34.924584">
<ele>329</ele>
<time>2021-06-02T00:10:00Z</time></trkpt>
<trkpt lat="31.671606" lon="34.92478">
<ele>330</ele>
<time>2021-06-02T00:10:05Z</time></trkpt>
<trkpt lat="31.671569" lon="34.925119">
<ele>333</ele>
<time>2021-06-02T00:10:11Z</time></trkpt>
<trkpt lat="31.671593" lon="34.925373">
<ele>334</ele>
<time>2021-06-02T00:10:15Z</time></trkpt>
<trkpt lat="31.671746" lon="34.925751">
<ele>338</ele>
<time>2021-06-02T00:10:22Z</time></trkpt>
<trkpt lat="31.6717942" lon="34.9258279">
<ele>340</ele>
<time>2021-06-02T00:10:24Z</time></trkpt>
<trkpt lat="31.671874" lon="34.925873">
<ele>342</ele>
<time>2021-06-02T00:10:26Z</time></trkpt>
<trkpt lat="31.671856" lon="34.926269">
<ele>344</ele>
<time>2021-06-02T00:10:32Z</time></trkpt>
<trkpt lat="31.671786" lon="34.926448">
<ele>343</ele>
<time>2021-06-02T00:10:36Z</time></trkpt>
<trkpt lat="31.671694" lon="34.926509">
<ele>342</ele>
<time>2021-06-02T00:10:38Z</time></trkpt>
<trkpt lat="31.671668" lon="34.926526">
<ele>341</ele>
<time>2021-06-02T00:10:38Z</time></trkpt>
<trkpt lat="31.671579" lon="34.926468">
<ele>340</ele>
<time>2021-06-02T00:10:40Z</time></trkpt>
<trkpt lat="31.671342" lon="34.926411">
<ele>338</ele>
<time>2021-06-02T00:10:45Z</time></trkpt>
<trkpt lat="31.671116" lon="34.926191">
<ele>333</ele>
<time>2021-06-02T00:10:51Z</time></trkpt>
<trkpt lat="31.6709941" lon="34.9260942">
<ele>330</ele>
<time>2021-06-02T00:10:54Z</time></trkpt>
<trkpt lat="31.67088" lon="34.926">
<ele>327</ele>
<time>2021-06-02T00:10:57Z</time></trkpt>
<trkpt lat="31.67003" lon="34.92583">
<ele>320</ele>
<time>2021-06-02T00:11:14Z</time></trkpt>
<trkpt lat="31.66979" lon="34.92589">
<ele>322</ele>
<time>2021-06-02T00:11:19Z</time></trkpt>
<trkpt lat="31.66932" lon="34.92599">
<ele>324</ele>
<time>2021-06-02T00:11:29Z</time></trkpt>
<trkpt lat="31.66903" lon="34.92622">
<ele>324</ele>
<time>2021-06-02T00:11:36Z</time></trkpt>
<trkpt lat="31.66904" lon="34.92606">
<ele>325</ele>
<time>2021-06-02T00:11:38Z</time></trkpt>
<trkpt lat="31.66872" lon="34.92384">
<ele>334</ele>
<time>2021-06-02T00:12:17Z</time></trkpt>
<trkpt lat="31.66865" lon="34.92324">
<ele>338</ele>
<time>2021-06-02T00:12:27Z</time></trkpt>
<trkpt lat="31.66864" lon="34.92202">
<ele>340</ele>
<time>2021-06-02T00:12:48Z</time></trkpt>
<trkpt lat="31.66862" lon="34.92185">
<ele>340</ele>
<time>2021-06-02T00:12:51Z</time></trkpt>
<trkpt lat="31.66856" lon="34.92161">
<ele>341</ele>
<time>2021-06-02T00:12:55Z</time></trkpt>
<trkpt lat="31.66845" lon="34.92139">
<ele>341</ele>
<time>2021-06-02T00:13:00Z</time></trkpt>
<trkpt lat="31.668294" lon="34.921167">
<ele>342</ele>
<time>2021-06-02T00:13:04Z</time></trkpt>
<trkpt lat="31.668186" lon="34.921054">
<ele>340</ele>
<time>2021-06-02T00:13:07Z</time></trkpt>
<trkpt lat="31.668057" lon="34.92098">
<ele>339</ele>
<time>2021-06-02T00:13:10Z</time></trkpt>
<trkpt lat="31.66798" lon="34.92096">
<ele>339</ele>
<time>2021-06-02T00:13:12Z</time></trkpt>
<trkpt lat="31.66777" lon="34.921475">
<ele>348</ele>
<time>2021-06-02T00:13:22Z</time></trkpt>
<trkpt lat="31.667505" lon="34.921826">
<ele>355</ele>
<time>2021-06-02T00:13:30Z</time></trkpt>
<trkpt lat="31.667319" lon="34.921987">
<ele>358</ele>
<time>2021-06-02T00:13:34Z</time></trkpt>
<trkpt lat="31.667189" lon="34.922064">
<ele>360</ele>
<time>2021-06-02T00:13:37Z</time></trkpt>
<trkpt lat="31.666986" lon="34.922087">
<ele>361</ele>
<time>2021-06-02T00:13:41Z</time></trkpt>
<trkpt lat="31.666652" lon="34.921957">
<ele>360</ele>
<time>2021-06-02T00:13:48Z</time></trkpt>
<trkpt lat="31.666676" lon="34.922074">
<ele>361</ele>
<time>2021-06-02T00:13:50Z</time></trkpt>
<trkpt lat="31.666739" lon="34.922195">
<ele>363</ele>
<time>2021-06-02T00:13:53Z</time></trkpt>
<trkpt lat="31.666829" lon="34.922259">
<ele>363</ele>
<time>2021-06-02T00:13:55Z</time></trkpt>
<trkpt lat="31.667083" lon="34.922373">
<ele>365</ele>
<time>2021-06-02T00:14:00Z</time></trkpt>
<trkpt lat="31.667386" lon="34.922425">
<ele>365</ele>
<time>2021-06-02T00:14:06Z</time></trkpt>
<trkpt lat="31.667597" lon="34.92236">
<ele>362</ele>
<time>2021-06-02T00:14:11Z</time></trkpt>
<trkpt lat="31.6676236" lon="34.9223764">
<ele>362</ele>
<time>2021-06-02T00:14:11Z</time></trkpt>
<trkpt lat="31.667701" lon="34.922424">
<ele>362</ele>
<time>2021-06-02T00:14:13Z</time></trkpt>
<trkpt lat="31.667721" lon="34.922554">
<ele>362</ele>
<time>2021-06-02T00:14:15Z</time></trkpt>
<trkpt lat="31.66766" lon="34.922717">
<ele>362</ele>
<time>2021-06-02T00:14:18Z</time></trkpt>
<trkpt lat="31.667452" lon="34.922887">
<ele>365</ele>
<time>2021-06-02T00:14:23Z</time></trkpt>
<trkpt lat="31.667397" lon="34.922913">
<ele>364</ele>
<time>2021-06-02T00:14:25Z</time></trkpt>
<trkpt lat="31.6673666" lon="34.9229183">
<ele>364</ele>
<time>2021-06-02T00:14:25Z</time></trkpt>
<trkpt lat="31.667236" lon="34.922941">
<ele>364</ele>
<time>2021-06-02T00:14:28Z</time></trkpt>
<trkpt lat="31.667079" lon="34.922902">
<ele>364</ele>
<time>2021-06-02T00:14:31Z</time></trkpt>
<trkpt lat="31.667285" lon="34.922736">
<ele>365</ele>
<time>2021-06-02T00:14:36Z</time></trkpt>
<trkpt lat="31.667381" lon="34.92273">
<ele>365</ele>
<time>2021-06-02T00:14:38Z</time></trkpt>
<trkpt lat="31.667475" lon="34.922725">
<ele>365</ele>
<time>2021-06-02T00:14:40Z</time></trkpt>
<trkpt lat="31.66758" lon="34.922596">
<ele>364</ele>
<time>2021-06-02T00:14:43Z</time></trkpt>
<trkpt lat="31.667554" lon="34.922504">
<ele>365</ele>
<time>2021-06-02T00:14:45Z</time></trkpt>
<trkpt lat="31.66758" lon="34.922596">
<ele>364</ele>
<time>2021-06-02T00:14:46Z</time></trkpt>
<trkpt lat="31.667475" lon="34.922725">
<ele>365</ele>
<time>2021-06-02T00:14:49Z</time></trkpt>
<trkpt lat="31.667285" lon="34.922736">
<ele>365</ele>
<time>2021-06-02T00:14:53Z</time></trkpt>
<trkpt lat="31.667281" lon="34.922739">
<ele>365</ele>
<time>2021-06-02T00:14:53Z</time></trkpt>
<trkpt lat="31.667079" lon="34.922902">
<ele>364</ele>
<time>2021-06-02T00:14:58Z</time></trkpt>
<trkpt lat="31.667086" lon="34.922903">
<ele>364</ele>
<time>2021-06-02T00:14:58Z</time></trkpt>
<trkpt lat="31.667236" lon="34.922941">
<ele>364</ele>
<time>2021-06-02T00:15:01Z</time></trkpt>
<trkpt lat="31.667397" lon="34.922913">
<ele>364</ele>
<time>2021-06-02T00:15:05Z</time></trkpt>
<trkpt lat="31.667452" lon="34.922887">
<ele>365</ele>
<time>2021-06-02T00:15:06Z</time></trkpt>
<trkpt lat="31.66766" lon="34.922717">
<ele>362</ele>
<time>2021-06-02T00:15:11Z</time></trkpt>
<trkpt lat="31.667721" lon="34.922554">
<ele>362</ele>
<time>2021-06-02T00:15:14Z</time></trkpt>
<trkpt lat="31.667701" lon="34.922424">
<ele>362</ele>
<time>2021-06-02T00:15:16Z</time></trkpt>
<trkpt lat="31.667597" lon="34.92236">
<ele>362</ele>
<time>2021-06-02T00:15:19Z</time></trkpt>
<trkpt lat="31.667386" lon="34.922425">
<ele>365</ele>
<time>2021-06-02T00:15:23Z</time></trkpt>
<trkpt lat="31.667083" lon="34.922373">
<ele>365</ele>
<time>2021-06-02T00:15:29Z</time></trkpt>
<trkpt lat="31.666829" lon="34.922259">
<ele>363</ele>
<time>2021-06-02T00:15:35Z</time></trkpt>
<trkpt lat="31.666739" lon="34.922195">
<ele>363</ele>
<time>2021-06-02T00:15:37Z</time></trkpt>
<trkpt lat="31.666676" lon="34.922074">
<ele>361</ele>
<time>2021-06-02T00:15:39Z</time></trkpt>
<trkpt lat="31.666652" lon="34.921957">
<ele>360</ele>
<time>2021-06-02T00:15:41Z</time></trkpt>
<trkpt lat="31.666986" lon="34.922087">
<ele>361</ele>
<time>2021-06-02T00:15:48Z</time></trkpt>
<trkpt lat="31.667189" lon="34.922064">
<ele>360</ele>
<time>2021-06-02T00:15:52Z</time></trkpt>
<trkpt lat="31.667319" lon="34.921987">
<ele>358</ele>
<time>2021-06-02T00:15:55Z</time></trkpt>
<trkpt lat="31.667505" lon="34.921826">
<ele>355</ele>
<time>2021-06-02T00:16:00Z</time></trkpt>
<trkpt lat="31.66777" lon="34.921475">
<ele>348</ele>
<time>2021-06-02T00:16:08Z</time></trkpt>
<trkpt lat="31.66798" lon="34.92096">
<ele>339</ele>
<time>2021-06-02T00:16:18Z</time></trkpt>
<trkpt lat="31.667869" lon="34.921009">
<ele>340</ele>
<time>2021-06-02T00:16:20Z</time></trkpt>
<trkpt lat="31.6677247" lon="34.9212353">
<ele>344</ele>
<time>2021-06-02T00:16:25Z</time></trkpt>
<trkpt lat="31.66767" lon="34.92132">
<ele>346</ele>
<time>2021-06-02T00:16:27Z</time></trkpt>
<trkpt lat="31.66756" lon="34.92154">
<ele>350</ele>
<time>2021-06-02T00:16:31Z</time></trkpt>
<trkpt lat="31.66743" lon="34.92172">
<ele>353</ele>
<time>2021-06-02T00:16:35Z</time></trkpt>
<trkpt lat="31.66726" lon="34.92181">
<ele>355</ele>
<time>2021-06-02T00:16:39Z</time></trkpt>
<trkpt lat="31.66708" lon="34.92183">
<ele>356</ele>
<time>2021-06-02T00:16:42Z</time></trkpt>
<trkpt lat="31.66694" lon="34.92178">
<ele>356</ele>
<time>2021-06-02T00:16:45Z</time></trkpt>
<trkpt lat="31.66692" lon="34.92178">
<ele>356</ele>
<time>2021-06-02T00:16:46Z</time></trkpt>
<trkpt lat="31.66679" lon="34.92165">
<ele>355</ele>
<time>2021-06-02T00:16:49Z</time></trkpt>
<trkpt lat="31.66646" lon="34.92135">
<ele>349</ele>
<time>2021-06-02T00:16:57Z</time></trkpt>
<trkpt lat="31.66633" lon="34.92122">
<ele>347</ele>
<time>2021-06-02T00:17:01Z</time></trkpt>
<trkpt lat="31.66603" lon="34.9211">
<ele>347</ele>
<time>2021-06-02T00:17:07Z</time></trkpt>
<trkpt lat="31.66545" lon="34.92099">
<ele>345</ele>
<time>2021-06-02T00:17:19Z</time></trkpt>
<trkpt lat="31.66534" lon="34.92094">
<ele>344</ele>
<time>2021-06-02T00:17:21Z</time></trkpt>
<trkpt lat="31.66533" lon="34.92094">
<ele>344</ele>
<time>2021-06-02T00:17:21Z</time></trkpt>
<trkpt lat="31.66522" lon="34.9209">
<ele>344</ele>
<time>2021-06-02T00:17:24Z</time></trkpt>
<trkpt lat="31.6649" lon="34.92083">
<ele>341</ele>
<time>2021-06-02T00:17:30Z</time></trkpt>
<trkpt lat="31.66478" lon="34.92086">
<ele>340</ele>
<time>2021-06-02T00:17:33Z</time></trkpt>
<trkpt lat="31.66471" lon="34.92091">
<ele>339</ele>
<time>2021-06-02T00:17:34Z</time></trkpt>
<trkpt lat="31.66466" lon="34.92099">
<ele>339</ele>
<time>2021-06-02T00:17:36Z</time></trkpt>
<trkpt lat="31.66464" lon="34.92108">
<ele>339</ele>
<time>2021-06-02T00:17:38Z</time></trkpt>
<trkpt lat="31.66465" lon="34.92118">
<ele>341</ele>
<time>2021-06-02T00:17:39Z</time></trkpt>
<trkpt lat="31.66492" lon="34.92189">
<ele>353</ele>
<time>2021-06-02T00:17:53Z</time></trkpt>
<trkpt lat="31.66486" lon="34.92216">
<ele>354</ele>
<time>2021-06-02T00:17:57Z</time></trkpt>
<trkpt lat="31.66467" lon="34.9222">
<ele>352</ele>
<time>2021-06-02T00:18:01Z</time></trkpt>
<trkpt lat="31.66414" lon="34.92216">
<ele>345</ele>
<time>2021-06-02T00:18:12Z</time></trkpt>
<trkpt lat="31.66397" lon="34.92214">
<ele>344</ele>
<time>2021-06-02T00:18:15Z</time></trkpt>
<trkpt lat="31.66387" lon="34.9221">
<ele>343</ele>
<time>2021-06-02T00:18:17Z</time></trkpt>
<trkpt lat="31.66361" lon="34.92196">
<ele>339</ele>
<time>2021-06-02T00:18:23Z</time></trkpt>
<trkpt lat="31.66351" lon="34.92194">
<ele>338</ele>
<time>2021-06-02T00:18:25Z</time></trkpt>
<trkpt lat="31.66319" lon="34.92202">
<ele>339</ele>
<time>2021-06-02T00:18:32Z</time></trkpt>
<trkpt lat="31.663" lon="34.9221">
<ele>340</ele>
<time>2021-06-02T00:18:36Z</time></trkpt>
<trkpt lat="31.66285" lon="34.92186">
<ele>339</ele>
<time>2021-06-02T00:18:41Z</time></trkpt>
<trkpt lat="31.66274" lon="34.92135">
<ele>335</ele>
<time>2021-06-02T00:18:50Z</time></trkpt>
<trkpt lat="31.66247" lon="34.92077">
<ele>336</ele>
<time>2021-06-02T00:19:01Z</time></trkpt>
<trkpt lat="31.66247" lon="34.92076">
<ele>336</ele>
<time>2021-06-02T00:19:01Z</time></trkpt>
<trkpt lat="31.66233" lon="34.92048">
<ele>337</ele>
<time>2021-06-02T00:19:07Z</time></trkpt>
<trkpt lat="31.66225" lon="34.92019">
<ele>336</ele>
<time>2021-06-02T00:19:12Z</time></trkpt>
<trkpt lat="31.66202" lon="34.91983">
<ele>338</ele>
<time>2021-06-02T00:19:20Z</time></trkpt>
<trkpt lat="31.66196" lon="34.9197">
<ele>337</ele>
<time>2021-06-02T00:19:22Z</time></trkpt>
<trkpt lat="31.66188" lon="34.91964">
<ele>338</ele>
<time>2021-06-02T00:19:24Z</time></trkpt>
<trkpt lat="31.66163" lon="34.91953">
<ele>340</ele>
<time>2021-06-02T00:19:30Z</time></trkpt>
<trkpt lat="31.66162" lon="34.91953">
<ele>340</ele>
<time>2021-06-02T00:19:30Z</time></trkpt>
<trkpt lat="31.66157" lon="34.91951">
<ele>339</ele>
<time>2021-06-02T00:19:31Z</time></trkpt>
<trkpt lat="31.66147" lon="34.91951">
<ele>339</ele>
<time>2021-06-02T00:19:33Z</time></trkpt>
<trkpt lat="31.6614" lon="34.91959">
<ele>339</ele>
<time>2021-06-02T00:19:35Z</time></trkpt>
<trkpt lat="31.66148" lon="34.91984">
<ele>344</ele>
<time>2021-06-02T00:19:39Z</time></trkpt>
<trkpt lat="31.66151" lon="34.92011">
<ele>348</ele>
<time>2021-06-02T00:19:44Z</time></trkpt>
<trkpt lat="31.66154" lon="34.92067">
<ele>356</ele>
<time>2021-06-02T00:19:54Z</time></trkpt>
<trkpt lat="31.66142" lon="34.92094">
<ele>359</ele>
<time>2021-06-02T00:19:59Z</time></trkpt>
<trkpt lat="31.6613" lon="34.92112">
<ele>362</ele>
<time>2021-06-02T00:20:03Z</time></trkpt>
<trkpt lat="31.66107" lon="34.92117">
<ele>365</ele>
<time>2021-06-02T00:20:07Z</time></trkpt>
<trkpt lat="31.66082" lon="34.9212">
<ele>368</ele>
<time>2021-06-02T00:20:12Z</time></trkpt>
<trkpt lat="31.66015" lon="34.92126">
<ele>374</ele>
<time>2021-06-02T00:20:26Z</time></trkpt>
<trkpt lat="31.65973" lon="34.92108">
<ele>373</ele>
<time>2021-06-02T00:20:35Z</time></trkpt>
<trkpt lat="31.6593" lon="34.92094">
<ele>374</ele>
<time>2021-06-02T00:20:44Z</time></trkpt>
<trkpt lat="31.65913" lon="34.92098">
<ele>375</ele>
<time>2021-06-02T00:20:47Z</time></trkpt>
<trkpt lat="31.65903" lon="34.92108">
<ele>375</ele>
<time>2021-06-02T00:20:50Z</time></trkpt>
<trkpt lat="31.65893" lon="34.92122">
<ele>375</ele>
<time>2021-06-02T00:20:53Z</time></trkpt>
<trkpt lat="31.6587" lon="34.92175">
<ele>376</ele>
<time>2021-06-02T00:21:03Z</time></trkpt>
<trkpt lat="31.65804" lon="34.92244">
<ele>366</ele>
<time>2021-06-02T00:21:21Z</time></trkpt>
<trkpt lat="31.65785" lon="34.92266">
<ele>362</ele>
<time>2021-06-02T00:21:26Z</time></trkpt>
<trkpt lat="31.65779" lon="34.92271">
<ele>360</ele>
<time>2021-06-02T00:21:28Z</time></trkpt>
<trkpt lat="31.65772" lon="34.92273">
<ele>359</ele>
<time>2021-06-02T00:21:29Z</time></trkpt>
<trkpt lat="31.65749" lon="34.92263">
<ele>357</ele>
<time>2021-06-02T00:21:34Z</time></trkpt>
<trkpt lat="31.65732" lon="34.92264">
<ele>358</ele>
<time>2021-06-02T00:21:37Z</time></trkpt>
<trkpt lat="31.65708" lon="34.92262">
<ele>358</ele>
<time>2021-06-02T00:21:42Z</time></trkpt>
<trkpt lat="31.65679" lon="34.92252">
<ele>360</ele>
<time>2021-06-02T00:21:48Z</time></trkpt>
<trkpt lat="31.65671" lon="34.92247">
<ele>360</ele>
<time>2021-06-02T00:21:50Z</time></trkpt>
<trkpt lat="31.65671" lon="34.92246">
<ele>359</ele>
<time>2021-06-02T00:21:50Z</time></trkpt>
<trkpt lat="31.65643" lon="34.92229">
<ele>359</ele>
<time>2021-06-02T00:21:57Z</time></trkpt>
<trkpt lat="31.65624" lon="34.9222">
<ele>360</ele>
<time>2021-06-02T00:22:01Z</time></trkpt>
<trkpt lat="31.6549869" lon="34.9218115">
<ele>370</ele>
<time>2021-06-02T00:22:27Z</time></trkpt>
<trkpt lat="31.654427" lon="34.921556">
<ele>377</ele>
<time>2021-06-02T00:22:39Z</time></trkpt>
<trkpt lat="31.654376" lon="34.921558">
<ele>377</ele>
<time>2021-06-02T00:22:40Z</time></trkpt>
<trkpt lat="31.65431" lon="34.921598">
<ele>378</ele>
<time>2021-06-02T00:22:41Z</time></trkpt>
<trkpt lat="31.65413" lon="34.921779">
<ele>379</ele>
<time>2021-06-02T00:22:46Z</time></trkpt>
<trkpt lat="31.654046" lon="34.921812">
<ele>378</ele>
<time>2021-06-02T00:22:48Z</time></trkpt>
<trkpt lat="31.653789" lon="34.921843">
<ele>377</ele>
<time>2021-06-02T00:22:53Z</time></trkpt>
<trkpt lat="31.653712" lon="34.921822">
<ele>376</ele>
<time>2021-06-02T00:22:54Z</time></trkpt>
<trkpt lat="31.65334" lon="34.921539">
<ele>376</ele>
<time>2021-06-02T00:23:03Z</time></trkpt>
<trkpt lat="31.653246" lon="34.921446">
<ele>374</ele>
<time>2021-06-02T00:23:06Z</time></trkpt>
<trkpt lat="31.653224" lon="34.921399">
<ele>374</ele>
<time>2021-06-02T00:23:07Z</time></trkpt>
<trkpt lat="31.653166" lon="34.921275">
<ele>373</ele>
<time>2021-06-02T00:23:09Z</time></trkpt>
<trkpt lat="31.65312" lon="34.921032">
<ele>372</ele>
<time>2021-06-02T00:23:13Z</time></trkpt>
<trkpt lat="31.653109" lon="34.920769">
<ele>372</ele>
<time>2021-06-02T00:23:18Z</time></trkpt>
<trkpt lat="31.653117" lon="34.920666">
<ele>372</ele>
<time>2021-06-02T00:23:20Z</time></trkpt>
<trkpt lat="31.653264" lon="34.920009">
<ele>375</ele>
<time>2021-06-02T00:23:31Z</time></trkpt>
<trkpt lat="31.653268" lon="34.919866">
<ele>376</ele>
<time>2021-06-02T00:23:34Z</time></trkpt>
<trkpt lat="31.653248" lon="34.919765">
<ele>376</ele>
<time>2021-06-02T00:23:35Z</time></trkpt>
<trkpt lat="31.65319" lon="34.919615">
<ele>376</ele>
<time>2021-06-02T00:23:38Z</time></trkpt>
<trkpt lat="31.653093" lon="34.919453">
<ele>376</ele>
<time>2021-06-02T00:23:42Z</time></trkpt>
<trkpt lat="31.652922" lon="34.91927">
<ele>376</ele>
<time>2021-06-02T00:23:46Z</time></trkpt>
<trkpt lat="31.652785" lon="34.919175">
<ele>377</ele>
<time>2021-06-02T00:23:49Z</time></trkpt>
<trkpt lat="31.65257" lon="34.919086">
<ele>377</ele>
<time>2021-06-02T00:23:54Z</time></trkpt>
<trkpt lat="31.652238" lon="34.919076">
<ele>377</ele>
<time>2021-06-02T00:24:01Z</time></trkpt>
<trkpt lat="31.651997" lon="34.919137">
<ele>377</ele>
<time>2021-06-02T00:24:06Z</time></trkpt>
<trkpt lat="31.651433" lon="34.919428">
<ele>375</ele>
<time>2021-06-02T00:24:18Z</time></trkpt>
<trkpt lat="31.651304" lon="34.91946">
<ele>376</ele>
<time>2021-06-02T00:24:21Z</time></trkpt>
<trkpt lat="31.650931" lon="34.919507">
<ele>376</ele>
<time>2021-06-02T00:24:28Z</time></trkpt>
<trkpt lat="31.650577" lon="34.919454">
<ele>375</ele>
<time>2021-06-02T00:24:35Z</time></trkpt>
<trkpt lat="31.65043" lon="34.919384">
<ele>375</ele>
<time>2021-06-02T00:24:38Z</time></trkpt>
<trkpt lat="31.650257" lon="34.919249">
<ele>375</ele>
<time>2021-06-02T00:24:43Z</time></trkpt>
<trkpt lat="31.650159" lon="34.919109">
<ele>375</ele>
<time>2021-06-02T00:24:46Z</time></trkpt>
<trkpt lat="31.65007" lon="34.91886">
<ele>376</ele>
<time>2021-06-02T00:24:50Z</time></trkpt>
<trkpt lat="31.649985" lon="34.918521">
<ele>377</ele>
<time>2021-06-02T00:24:56Z</time></trkpt>
<trkpt lat="31.649904" lon="34.918313">
<ele>378</ele>
<time>2021-06-02T00:25:00Z</time></trkpt>
<trkpt lat="31.649835" lon="34.918206">
<ele>378</ele>
<time>2021-06-02T00:25:02Z</time></trkpt>
<trkpt lat="31.649677" lon="34.918052">
<ele>378</ele>
<time>2021-06-02T00:25:07Z</time></trkpt>
<trkpt lat="31.649576" lon="34.917987">
<ele>378</ele>
<time>2021-06-02T00:25:09Z</time></trkpt>
<trkpt lat="31.649465" lon="34.91796">
<ele>378</ele>
<time>2021-06-02T00:25:11Z</time></trkpt>
<trkpt lat="31.649267" lon="34.917962">
<ele>377</ele>
<time>2021-06-02T00:25:15Z</time></trkpt>
<trkpt lat="31.648758" lon="34.918117">
<ele>378</ele>
<time>2021-06-02T00:25:26Z</time></trkpt>
<trkpt lat="31.648642" lon="34.918169">
<ele>378</ele>
<time>2021-06-02T00:25:28Z</time></trkpt>
<trkpt lat="31.648095" lon="34.918491">
<ele>378</ele>
<time>2021-06-02T00:25:40Z</time></trkpt>
<trkpt lat="31.648009" lon="34.918515">
<ele>377</ele>
<time>2021-06-02T00:25:42Z</time></trkpt>
<trkpt lat="31.647856" lon="34.918523">
<ele>378</ele>
<time>2021-06-02T00:25:45Z</time></trkpt>
<trkpt lat="31.647751" lon="34.918505">
<ele>378</ele>
<time>2021-06-02T00:25:47Z</time></trkpt>
<trkpt lat="31.647683" lon="34.918459">
<ele>378</ele>
<time>2021-06-02T00:25:49Z</time></trkpt>
<trkpt lat="31.647636" lon="34.918398">
<ele>378</ele>
<time>2021-06-02T00:25:50Z</time></trkpt>
<trkpt lat="31.64759" lon="34.918231">
<ele>379</ele>
<time>2021-06-02T00:25:53Z</time></trkpt>
<trkpt lat="31.647583" lon="34.918061">
<ele>379</ele>
<time>2021-06-02T00:25:56Z</time></trkpt>
<trkpt lat="31.647525" lon="34.917829">
<ele>380</ele>
<time>2021-06-02T00:26:00Z</time></trkpt>
<trkpt lat="31.647441" lon="34.917752">
<ele>380</ele>
<time>2021-06-02T00:26:03Z</time></trkpt>
<trkpt lat="31.647244" lon="34.917642">
<ele>379</ele>
<time>2021-06-02T00:26:07Z</time></trkpt>
<trkpt lat="31.646796" lon="34.917425">
<ele>377</ele>
<time>2021-06-02T00:26:17Z</time></trkpt>
<trkpt lat="31.646652" lon="34.917377">
<ele>377</ele>
<time>2021-06-02T00:26:20Z</time></trkpt>
<trkpt lat="31.646466" lon="34.917336">
<ele>378</ele>
<time>2021-06-02T00:26:23Z</time></trkpt>
<trkpt lat="31.646401" lon="34.917387">
<ele>378</ele>
<time>2021-06-02T00:26:25Z</time></trkpt>
<trkpt lat="31.64645" lon="34.9175">
<ele>377</ele>
<time>2021-06-02T00:26:27Z</time></trkpt>
<trkpt lat="31.646639" lon="34.917594">
<ele>375</ele>
<time>2021-06-02T00:26:31Z</time></trkpt>
<trkpt lat="31.646738" lon="34.917711">
<ele>374</ele>
<time>2021-06-02T00:26:34Z</time></trkpt>
<trkpt lat="31.646784" lon="34.917812">
<ele>374</ele>
<time>2021-06-02T00:26:36Z</time></trkpt>
<trkpt lat="31.646805" lon="34.917924">
<ele>373</ele>
<time>2021-06-02T00:26:38Z</time></trkpt>
<trkpt lat="31.646801" lon="34.91803">
<ele>372</ele>
<time>2021-06-02T00:26:40Z</time></trkpt>
<trkpt lat="31.646774" lon="34.918171">
<ele>370</ele>
<time>2021-06-02T00:26:42Z</time></trkpt>
<trkpt lat="31.646667" lon="34.918599">
<ele>366</ele>
<time>2021-06-02T00:26:50Z</time></trkpt>
<trkpt lat="31.646554" lon="34.919185">
<ele>363</ele>
<time>2021-06-02T00:27:00Z</time></trkpt>
<trkpt lat="31.646503" lon="34.919333">
<ele>363</ele>
<time>2021-06-02T00:27:03Z</time></trkpt>
<trkpt lat="31.646223" lon="34.919916">
<ele>360</ele>
<time>2021-06-02T00:27:14Z</time></trkpt>
<trkpt lat="31.646045" lon="34.920351">
<ele>356</ele>
<time>2021-06-02T00:27:22Z</time></trkpt>
<trkpt lat="31.645886" lon="34.920692">
<ele>352</ele>
<time>2021-06-02T00:27:29Z</time></trkpt>
<trkpt lat="31.645472" lon="34.92147">
<ele>348</ele>
<time>2021-06-02T00:27:45Z</time></trkpt>
<trkpt lat="31.645402" lon="34.921659">
<ele>347</ele>
<time>2021-06-02T00:27:48Z</time></trkpt>
<trkpt lat="31.645239" lon="34.9222">
<ele>342</ele>
<time>2021-06-02T00:27:58Z</time></trkpt>
<trkpt lat="31.64509" lon="34.922536">
<ele>338</ele>
<time>2021-06-02T00:28:05Z</time></trkpt>
<trkpt lat="31.645032" lon="34.922729">
<ele>336</ele>
<time>2021-06-02T00:28:08Z</time></trkpt>
<trkpt lat="31.644928" lon="34.923278">
<ele>331</ele>
<time>2021-06-02T00:28:18Z</time></trkpt>
<trkpt lat="31.644928" lon="34.923425">
<ele>330</ele>
<time>2021-06-02T00:28:20Z</time></trkpt>
<trkpt lat="31.645052" lon="34.924066">
<ele>325</ele>
<time>2021-06-02T00:28:31Z</time></trkpt>
<trkpt lat="31.645104" lon="34.924142">
<ele>325</ele>
<time>2021-06-02T00:28:33Z</time></trkpt>
<trkpt lat="31.645189" lon="34.924218">
<ele>325</ele>
<time>2021-06-02T00:28:35Z</time></trkpt>
<trkpt lat="31.645426" lon="34.924365">
<ele>326</ele>
<time>2021-06-02T00:28:41Z</time></trkpt>
<trkpt lat="31.645615" lon="34.924511">
<ele>325</ele>
<time>2021-06-02T00:28:45Z</time></trkpt>
<trkpt lat="31.645947" lon="34.924841">
<ele>322</ele>
<time>2021-06-02T00:28:54Z</time></trkpt>
<trkpt lat="31.646123" lon="34.924954">
<ele>322</ele>
<time>2021-06-02T00:28:58Z</time></trkpt>
<trkpt lat="31.646186" lon="34.925046">
<ele>321</ele>
<time>2021-06-02T00:29:00Z</time></trkpt>
<trkpt lat="31.646174" lon="34.925149">
<ele>321</ele>
<time>2021-06-02T00:29:02Z</time></trkpt>
<trkpt lat="31.646523" lon="34.925381">
<ele>320</ele>
<time>2021-06-02T00:29:10Z</time></trkpt>
<trkpt lat="31.646411" lon="34.925586">
<ele>320</ele>
<time>2021-06-02T00:29:14Z</time></trkpt>
<trkpt lat="31.646343" lon="34.925817">
<ele>320</ele>
<time>2021-06-02T00:29:18Z</time></trkpt>
<trkpt lat="31.646391" lon="34.926001">
<ele>320</ele>
<time>2021-06-02T00:29:21Z</time></trkpt>
<trkpt lat="31.646542" lon="34.926228">
<ele>317</ele>
<time>2021-06-02T00:29:26Z</time></trkpt>
<trkpt lat="31.646668" lon="34.926502">
<ele>315</ele>
<time>2021-06-02T00:29:31Z</time></trkpt>
<trkpt lat="31.646696" lon="34.926706">
<ele>315</ele>
<time>2021-06-02T00:29:35Z</time></trkpt>
<trkpt lat="31.646679" lon="34.926892">
<ele>316</ele>
<time>2021-06-02T00:29:38Z</time></trkpt>
<trkpt lat="31.646509" lon="34.927284">
<ele>318</ele>
<time>2021-06-02T00:29:46Z</time></trkpt>
<trkpt lat="31.645982" lon="34.928375">
<ele>320</ele>
<time>2021-06-02T00:30:07Z</time></trkpt>
<trkpt lat="31.645712" lon="34.928781">
<ele>322</ele>
<time>2021-06-02T00:30:16Z</time></trkpt>
<trkpt lat="31.645249" lon="34.929208">
<ele>324</ele>
<time>2021-06-02T00:30:28Z</time></trkpt>
<trkpt lat="31.644502" lon="34.92977">
<ele>328</ele>
<time>2021-06-02T00:30:45Z</time></trkpt>
<trkpt lat="31.642548" lon="34.931171">
<ele>334</ele>
<time>2021-06-02T00:31:31Z</time></trkpt>
<trkpt lat="31.642322" lon="34.931321">
<ele>335</ele>
<time>2021-06-02T00:31:36Z</time></trkpt>
<trkpt lat="31.641783" lon="34.931599">
<ele>334</ele>
<time>2021-06-02T00:31:48Z</time></trkpt>
<trkpt lat="31.640663" lon="34.932136">
<ele>339</ele>
<time>2021-06-02T00:32:13Z</time></trkpt>
<trkpt lat="31.639924" lon="34.932416">
<ele>339</ele>
<time>2021-06-02T00:32:28Z</time></trkpt>
<trkpt lat="31.639475" lon="34.932607">
<ele>340</ele>
<time>2021-06-02T00:32:38Z</time></trkpt>
<trkpt lat="31.639159" lon="34.932786">
<ele>341</ele>
<time>2021-06-02T00:32:45Z</time></trkpt>
<trkpt lat="31.638755" lon="34.933079">
<ele>344</ele>
<time>2021-06-02T00:32:54Z</time></trkpt>
<trkpt lat="31.638339" lon="34.93343">
<ele>344</ele>
<time>2021-06-02T00:33:04Z</time></trkpt>
<trkpt lat="31.637944" lon="34.93384">
<ele>348</ele>
<time>2021-06-02T00:33:15Z</time></trkpt>
<trkpt lat="31.63773" lon="34.934117">
<ele>348</ele>
<time>2021-06-02T00:33:21Z</time></trkpt>
<trkpt lat="31.636989" lon="34.935612">
<ele>350</ele>
<time>2021-06-02T00:33:51Z</time></trkpt>
<trkpt lat="31.636899" lon="34.935578">
<ele>349</ele>
<time>2021-06-02T00:33:53Z</time></trkpt>
<trkpt lat="31.636807" lon="34.93562">
<ele>349</ele>
<time>2021-06-02T00:33:55Z</time></trkpt>
<trkpt lat="31.636728" lon="34.935673">
<ele>348</ele>
<time>2021-06-02T00:33:57Z</time></trkpt>
<trkpt lat="31.636625" lon="34.935795">
<ele>347</ele>
<time>2021-06-02T00:34:00Z</time></trkpt>
<trkpt lat="31.63654" lon="34.935823">
<ele>347</ele>
<time>2021-06-02T00:34:01Z</time></trkpt>
<trkpt lat="31.636262" lon="34.935967">
<ele>350</ele>
<time>2021-06-02T00:34:07Z</time></trkpt>
<trkpt lat="31.636117" lon="34.936085">
<ele>351</ele>
<time>2021-06-02T00:34:11Z</time></trkpt>
<trkpt lat="31.63598" lon="34.936148">
<ele>352</ele>
<time>2021-06-02T00:34:14Z</time></trkpt>
<trkpt lat="31.635468" lon="34.936213">
<ele>354</ele>
<time>2021-06-02T00:34:24Z</time></trkpt>
<trkpt lat="31.635372" lon="34.936411">
<ele>354</ele>
<time>2021-06-02T00:34:28Z</time></trkpt>
<trkpt lat="31.635358" lon="34.936504">
<ele>354</ele>
<time>2021-06-02T00:34:30Z</time></trkpt>
<trkpt lat="31.635314" lon="34.936576">
<ele>354</ele>
<time>2021-06-02T00:34:31Z</time></trkpt>
<trkpt lat="31.635305" lon="34.936747">
<ele>355</ele>
<time>2021-06-02T00:34:34Z</time></trkpt>
<trkpt lat="31.635139" lon="34.937029">
<ele>357</ele>
<time>2021-06-02T00:34:40Z</time></trkpt>
<trkpt lat="31.634481" lon="34.937955">
<ele>365</ele>
<time>2021-06-02T00:35:01Z</time></trkpt>
<trkpt lat="31.634225" lon="34.938714">
<ele>366</ele>
<time>2021-06-02T00:35:14Z</time></trkpt>
<trkpt lat="31.634031" lon="34.939011">
<ele>368</ele>
<time>2021-06-02T00:35:21Z</time></trkpt>
<trkpt lat="31.633826" lon="34.939456">
<ele>372</ele>
<time>2021-06-02T00:35:29Z</time></trkpt>
<trkpt lat="31.633662" lon="34.939975">
<ele>373</ele>
<time>2021-06-02T00:35:39Z</time></trkpt>
<trkpt lat="31.633523" lon="34.940166">
<ele>373</ele>
<time>2021-06-02T00:35:43Z</time></trkpt>
<trkpt lat="31.63343" lon="34.940236">
<ele>373</ele>
<time>2021-06-02T00:35:45Z</time></trkpt>
<trkpt lat="31.633067" lon="34.940437">
<ele>376</ele>
<time>2021-06-02T00:35:53Z</time></trkpt>
<trkpt lat="31.632928" lon="34.940575">
<ele>376</ele>
<time>2021-06-02T00:35:57Z</time></trkpt>
<trkpt lat="31.63276" lon="34.940809">
<ele>375</ele>
<time>2021-06-02T00:36:02Z</time></trkpt>
<trkpt lat="31.632575" lon="34.941009">
<ele>376</ele>
<time>2021-06-02T00:36:07Z</time></trkpt>
<trkpt lat="31.632411" lon="34.941107">
<ele>377</ele>
<time>2021-06-02T00:36:11Z</time></trkpt>
<trkpt lat="31.632278" lon="34.941213">
<ele>378</ele>
<time>2021-06-02T00:36:14Z</time></trkpt>
<trkpt lat="31.632007" lon="34.941627">
<ele>381</ele>
<time>2021-06-02T00:36:23Z</time></trkpt>
<trkpt lat="31.631976" lon="34.941728">
<ele>381</ele>
<time>2021-06-02T00:36:25Z</time></trkpt>
<trkpt lat="31.631891" lon="34.941896">
<ele>382</ele>
<time>2021-06-02T00:36:28Z</time></trkpt>
<trkpt lat="31.631573" lon="34.942282">
<ele>384</ele>
<time>2021-06-02T00:36:38Z</time></trkpt>
<trkpt lat="31.631529" lon="34.942357">
<ele>384</ele>
<time>2021-06-02T00:36:39Z</time></trkpt>
<trkpt lat="31.631453" lon="34.94259">
<ele>386</ele>
<time>2021-06-02T00:36:43Z</time></trkpt>
<trkpt lat="31.631355" lon="34.942809">
<ele>388</ele>
<time>2021-06-02T00:36:48Z</time></trkpt>
<trkpt lat="31.63095" lon="34.943321">
<ele>389</ele>
<time>2021-06-02T00:36:59Z</time></trkpt>
<trkpt lat="31.630839" lon="34.943485">
<ele>390</ele>
<time>2021-06-02T00:37:03Z</time></trkpt>
<trkpt lat="31.63053" lon="34.944047">
<ele>390</ele>
<time>2021-06-02T00:37:14Z</time></trkpt>
<trkpt lat="31.630488" lon="34.94416">
<ele>389</ele>
<time>2021-06-02T00:37:17Z</time></trkpt>
<trkpt lat="31.630362" lon="34.944325">
<ele>389</ele>
<time>2021-06-02T00:37:20Z</time></trkpt>
<trkpt lat="31.629841" lon="34.944336">
<ele>382</ele>
<time>2021-06-02T00:37:31Z</time></trkpt>
<trkpt lat="31.629626" lon="34.944303">
<ele>380</ele>
<time>2021-06-02T00:37:35Z</time></trkpt>
<trkpt lat="31.629526" lon="34.94433">
<ele>379</ele>
<time>2021-06-02T00:37:37Z</time></trkpt>
<trkpt lat="31.629423" lon="34.944398">
<ele>378</ele>
<time>2021-06-02T00:37:40Z</time></trkpt>
<trkpt lat="31.629333" lon="34.944435">
<ele>377</ele>
<time>2021-06-02T00:37:41Z</time></trkpt>
<trkpt lat="31.629242" lon="34.944427">
<ele>376</ele>
<time>2021-06-02T00:37:43Z</time></trkpt>
<trkpt lat="31.628895" lon="34.944152">
<ele>373</ele>
<time>2021-06-02T00:37:52Z</time></trkpt>
<trkpt lat="31.628636" lon="34.943897">
<ele>373</ele>
<time>2021-06-02T00:37:58Z</time></trkpt>
<trkpt lat="31.628307" lon="34.943496">
<ele>370</ele>
<time>2021-06-02T00:38:08Z</time></trkpt>
<trkpt lat="31.628193" lon="34.943379">
<ele>370</ele>
<time>2021-06-02T00:38:11Z</time></trkpt>
<trkpt lat="31.627746" lon="34.943013">
<ele>369</ele>
<time>2021-06-02T00:38:22Z</time></trkpt>
<trkpt lat="31.627599" lon="34.942868">
<ele>368</ele>
<time>2021-06-02T00:38:26Z</time></trkpt>
<trkpt lat="31.627391" lon="34.942698">
<ele>366</ele>
<time>2021-06-02T00:38:31Z</time></trkpt>
<trkpt lat="31.627099" lon="34.942508">
<ele>363</ele>
<time>2021-06-02T00:38:38Z</time></trkpt>
<trkpt lat="31.626786" lon="34.942246">
<ele>360</ele>
<time>2021-06-02T00:38:45Z</time></trkpt>
<trkpt lat="31.626439" lon="34.941873">
<ele>355</ele>
<time>2021-06-02T00:38:55Z</time></trkpt>
<trkpt lat="31.626341" lon="34.94182">
<ele>354</ele>
<time>2021-06-02T00:38:57Z</time></trkpt>
<trkpt lat="31.625834" lon="34.941106">
<ele>346</ele>
<time>2021-06-02T00:39:13Z</time></trkpt>
<trkpt lat="31.625691" lon="34.940849">
<ele>348</ele>
<time>2021-06-02T00:39:18Z</time></trkpt>
<trkpt lat="31.625627" lon="34.940689">
<ele>348</ele>
<time>2021-06-02T00:39:21Z</time></trkpt>
<trkpt lat="31.625392" lon="34.939966">
<ele>346</ele>
<time>2021-06-02T00:39:34Z</time></trkpt>
<trkpt lat="31.625368" lon="34.939728">
<ele>345</ele>
<time>2021-06-02T00:39:38Z</time></trkpt>
<trkpt lat="31.625341" lon="34.939612">
<ele>345</ele>
<time>2021-06-02T00:39:40Z</time></trkpt>
<trkpt lat="31.625281" lon="34.93948">
<ele>344</ele>
<time>2021-06-02T00:39:43Z</time></trkpt>
<trkpt lat="31.625149" lon="34.939272">
<ele>340</ele>
<time>2021-06-02T00:39:47Z</time></trkpt>
<trkpt lat="31.625006" lon="34.938851">
<ele>337</ele>
<time>2021-06-02T00:39:55Z</time></trkpt>
<trkpt lat="31.62477" lon="34.938296">
<ele>338</ele>
<time>2021-06-02T00:40:06Z</time></trkpt>
<trkpt lat="31.624622" lon="34.937856">
<ele>338</ele>
<time>2021-06-02T00:40:14Z</time></trkpt>
<trkpt lat="31.624433" lon="34.937488">
<ele>335</ele>
<time>2021-06-02T00:40:21Z</time></trkpt>
<trkpt lat="31.624348" lon="34.937252">
<ele>334</ele>
<time>2021-06-02T00:40:25Z</time></trkpt>
<trkpt lat="31.623953" lon="34.935579">
<ele>328</ele>
<time>2021-06-02T00:40:55Z</time></trkpt>
<trkpt lat="31.623882" lon="34.935042">
<ele>327</ele>
<time>2021-06-02T00:41:04Z</time></trkpt>
<trkpt lat="31.623894" lon="34.934703">
<ele>325</ele>
<time>2021-06-02T00:41:10Z</time></trkpt>
<trkpt lat="31.623888" lon="34.934538">
<ele>324</ele>
<time>2021-06-02T00:41:13Z</time></trkpt>
<trkpt lat="31.623861" lon="34.934387">
<ele>324</ele>
<time>2021-06-02T00:41:15Z</time></trkpt>
<trkpt lat="31.623743" lon="34.93413">
<ele>322</ele>
<time>2021-06-02T00:41:20Z</time></trkpt>
<trkpt lat="31.62364" lon="34.933856">
<ele>321</ele>
<time>2021-06-02T00:41:26Z</time></trkpt>
<trkpt lat="31.623543" lon="34.933532">
<ele>319</ele>
<time>2021-06-02T00:41:31Z</time></trkpt>
<trkpt lat="31.623533" lon="34.933376">
<ele>318</ele>
<time>2021-06-02T00:41:34Z</time></trkpt>
<trkpt lat="31.623546" lon="34.933078">
<ele>317</ele>
<time>2021-06-02T00:41:39Z</time></trkpt>
<trkpt lat="31.623527" lon="34.93293">
<ele>317</ele>
<time>2021-06-02T00:41:42Z</time></trkpt>
<trkpt lat="31.623375" lon="34.932548">
<ele>313</ele>
<time>2021-06-02T00:41:49Z</time></trkpt>
<trkpt lat="31.62337" lon="34.932482">
<ele>313</ele>
<time>2021-06-02T00:41:50Z</time></trkpt>
<trkpt lat="31.623344" lon="34.932164">
<ele>312</ele>
<time>2021-06-02T00:41:56Z</time></trkpt>
<trkpt lat="31.62329" lon="34.93207">
<ele>312</ele>
<time>2021-06-02T00:41:57Z</time></trkpt>
<trkpt lat="31.623195" lon="34.931984">
<ele>313</ele>
<time>2021-06-02T00:42:00Z</time></trkpt>
<trkpt lat="31.62301" lon="34.932087">
<ele>314</ele>
<time>2021-06-02T00:42:04Z</time></trkpt>
<trkpt lat="31.623053" lon="34.932235">
<ele>314</ele>
<time>2021-06-02T00:42:07Z</time></trkpt>
<trkpt lat="31.622827" lon="34.932541">
<ele>313</ele>
<time>2021-06-02T00:42:14Z</time></trkpt>
<trkpt lat="31.622636" lon="34.932733">
<ele>315</ele>
<time>2021-06-02T00:42:19Z</time></trkpt>
<trkpt lat="31.622273" lon="34.9331712">
<ele>318</ele>
<time>2021-06-02T00:42:29Z</time></trkpt>
<trkpt lat="31.62199" lon="34.93353">
<ele>321</ele>
<time>2021-06-02T00:42:37Z</time></trkpt>
<trkpt lat="31.62168" lon="34.93397">
<ele>325</ele>
<time>2021-06-02T00:42:47Z</time></trkpt>
<trkpt lat="31.62162" lon="34.93413">
<ele>327</ele>
<time>2021-06-02T00:42:50Z</time></trkpt>
<trkpt lat="31.62138" lon="34.93482">
<ele>334</ele>
<time>2021-06-02T00:43:03Z</time></trkpt>
<trkpt lat="31.6212" lon="34.93564">
<ele>340</ele>
<time>2021-06-02T00:43:17Z</time></trkpt>
<trkpt lat="31.62115" lon="34.93599">
<ele>342</ele>
<time>2021-06-02T00:43:23Z</time></trkpt>
<trkpt lat="31.62115" lon="34.93624">
<ele>343</ele>
<time>2021-06-02T00:43:28Z</time></trkpt>
<trkpt lat="31.62109" lon="34.93671">
<ele>344</ele>
<time>2021-06-02T00:43:36Z</time></trkpt>
<trkpt lat="31.62109" lon="34.93695">
<ele>346</ele>
<time>2021-06-02T00:43:40Z</time></trkpt>
<trkpt lat="31.62112" lon="34.93729">
<ele>349</ele>
<time>2021-06-02T00:43:46Z</time></trkpt>
<trkpt lat="31.62112" lon="34.93753">
<ele>351</ele>
<time>2021-06-02T00:43:50Z</time></trkpt>
<trkpt lat="31.62109" lon="34.93801">
<ele>353</ele>
<time>2021-06-02T00:43:58Z</time></trkpt>
<trkpt lat="31.62114" lon="34.93848">
<ele>356</ele>
<time>2021-06-02T00:44:06Z</time></trkpt>
<trkpt lat="31.62124" lon="34.93894">
<ele>358</ele>
<time>2021-06-02T00:44:14Z</time></trkpt>
<trkpt lat="31.6213" lon="34.93933">
<ele>360</ele>
<time>2021-06-02T00:44:21Z</time></trkpt>
<trkpt lat="31.62132" lon="34.94014">
<ele>363</ele>
<time>2021-06-02T00:44:35Z</time></trkpt>
<trkpt lat="31.62121" lon="34.94083">
<ele>366</ele>
<time>2021-06-02T00:44:47Z</time></trkpt>
<trkpt lat="31.62085" lon="34.9422">
<ele>370</ele>
<time>2021-06-02T00:45:11Z</time></trkpt>
<trkpt lat="31.6208" lon="34.94243">
<ele>371</ele>
<time>2021-06-02T00:45:15Z</time></trkpt>
<trkpt lat="31.62077" lon="34.94274">
<ele>374</ele>
<time>2021-06-02T00:45:21Z</time></trkpt>
<trkpt lat="31.62062" lon="34.94356">
<ele>380</ele>
<time>2021-06-02T00:45:35Z</time></trkpt>
<trkpt lat="31.6206057" lon="34.943646">
<ele>381</ele>
<time>2021-06-02T00:45:36Z</time></trkpt>
<trkpt lat="31.620566" lon="34.943925">
<ele>382</ele>
<time>2021-06-02T00:45:41Z</time></trkpt>
<trkpt lat="31.620575" lon="34.944115">
<ele>382</ele>
<time>2021-06-02T00:45:44Z</time></trkpt>
<trkpt lat="31.61998" lon="34.944207">
<ele>384</ele>
<time>2021-06-02T00:45:56Z</time></trkpt>
<trkpt lat="31.619808" lon="34.944222">
<ele>383</ele>
<time>2021-06-02T00:46:00Z</time></trkpt>
<trkpt lat="31.619708" lon="34.944204">
<ele>383</ele>
<time>2021-06-02T00:46:02Z</time></trkpt>
<trkpt lat="31.6196" lon="34.944241">
<ele>383</ele>
<time>2021-06-02T00:46:04Z</time></trkpt>
<trkpt lat="31.619261" lon="34.944242">
<ele>381</ele>
<time>2021-06-02T00:46:11Z</time></trkpt>
<trkpt lat="31.61915" lon="34.944263">
<ele>381</ele>
<time>2021-06-02T00:46:13Z</time></trkpt>
<trkpt lat="31.619019" lon="34.94433">
<ele>378</ele>
<time>2021-06-02T00:46:16Z</time></trkpt>
<trkpt lat="31.618567" lon="34.944455">
<ele>369</ele>
<time>2021-06-02T00:46:25Z</time></trkpt>
<trkpt lat="31.618388" lon="34.944412">
<ele>366</ele>
<time>2021-06-02T00:46:29Z</time></trkpt>
<trkpt lat="31.618004" lon="34.944178">
<ele>356</ele>
<time>2021-06-02T00:46:38Z</time></trkpt>
<trkpt lat="31.61781" lon="34.94399">
<ele>354</ele>
<time>2021-06-02T00:46:43Z</time></trkpt>
<trkpt lat="31.61762" lon="34.94387">
<ele>352</ele>
<time>2021-06-02T00:46:47Z</time></trkpt>
<trkpt lat="31.617049" lon="34.943768">
<ele>346</ele>
<time>2021-06-02T00:46:59Z</time></trkpt>
<trkpt lat="31.616832" lon="34.94379">
<ele>343</ele>
<time>2021-06-02T00:47:03Z</time></trkpt>
<trkpt lat="31.616506" lon="34.943791">
<ele>339</ele>
<time>2021-06-02T00:47:10Z</time></trkpt>
<trkpt lat="31.616087" lon="34.943839">
<ele>332</ele>
<time>2021-06-02T00:47:18Z</time></trkpt>
<trkpt lat="31.616102" lon="34.944139">
<ele>330</ele>
<time>2021-06-02T00:47:23Z</time></trkpt>
<trkpt lat="31.616085" lon="34.944264">
<ele>330</ele>
<time>2021-06-02T00:47:25Z</time></trkpt>
<trkpt lat="31.615895" lon="34.94477">
<ele>329</ele>
<time>2021-06-02T00:47:35Z</time></trkpt>
<trkpt lat="31.615833" lon="34.944961">
<ele>328</ele>
<time>2021-06-02T00:47:38Z</time></trkpt>
<trkpt lat="31.615695" lon="34.945575">
<ele>328</ele>
<time>2021-06-02T00:47:49Z</time></trkpt>
<trkpt lat="31.615616" lon="34.946115">
<ele>329</ele>
<time>2021-06-02T00:47:58Z</time></trkpt>
<trkpt lat="31.615597" lon="34.946196">
<ele>328</ele>
<time>2021-06-02T00:48:00Z</time></trkpt>
<trkpt lat="31.615533" lon="34.946347">
<ele>328</ele>
<time>2021-06-02T00:48:03Z</time></trkpt>
<trkpt lat="31.615504" lon="34.946469">
<ele>328</ele>
<time>2021-06-02T00:48:05Z</time></trkpt>
<trkpt lat="31.615473" lon="34.946762">
<ele>327</ele>
<time>2021-06-02T00:48:10Z</time></trkpt>
<trkpt lat="31.615493" lon="34.947015">
<ele>327</ele>
<time>2021-06-02T00:48:14Z</time></trkpt>
<trkpt lat="31.615477" lon="34.947225">
<ele>326</ele>
<time>2021-06-02T00:48:18Z</time></trkpt>
<trkpt lat="31.615328" lon="34.947746">
<ele>326</ele>
<time>2021-06-02T00:48:27Z</time></trkpt>
<trkpt lat="31.615196" lon="34.948015">
<ele>326</ele>
<time>2021-06-02T00:48:32Z</time></trkpt>
<trkpt lat="31.614525" lon="34.948744">
<ele>329</ele>
<time>2021-06-02T00:48:51Z</time></trkpt>
<trkpt lat="31.614422" lon="34.948783">
<ele>328</ele>
<time>2021-06-02T00:48:53Z</time></trkpt>
<trkpt lat="31.614209" lon="34.949009">
<ele>328</ele>
<time>2021-06-02T00:48:59Z</time></trkpt>
<trkpt lat="31.613963" lon="34.949182">
<ele>327</ele>
<time>2021-06-02T00:49:04Z</time></trkpt>
<trkpt lat="31.61388" lon="34.949262">
<ele>327</ele>
<time>2021-06-02T00:49:07Z</time></trkpt>
<trkpt lat="31.613797" lon="34.949398">
<ele>328</ele>
<time>2021-06-02T00:49:09Z</time></trkpt>
<trkpt lat="31.613764" lon="34.949473">
<ele>329</ele>
<time>2021-06-02T00:49:11Z</time></trkpt>
<trkpt lat="31.613748" lon="34.949599">
<ele>330</ele>
<time>2021-06-02T00:49:13Z</time></trkpt>
<trkpt lat="31.613656" lon="34.94978">
<ele>330</ele>
<time>2021-06-02T00:49:17Z</time></trkpt>
<trkpt lat="31.613625" lon="34.949901">
<ele>331</ele>
<time>2021-06-02T00:49:19Z</time></trkpt>
<trkpt lat="31.613417" lon="34.950296">
<ele>331</ele>
<time>2021-06-02T00:49:27Z</time></trkpt>
<trkpt lat="31.613337" lon="34.950531">
<ele>331</ele>
<time>2021-06-02T00:49:31Z</time></trkpt>
<trkpt lat="31.61324" lon="34.950938">
<ele>333</ele>
<time>2021-06-02T00:49:38Z</time></trkpt>
<trkpt lat="31.613066" lon="34.951403">
<ele>331</ele>
<time>2021-06-02T00:49:47Z</time></trkpt>
<trkpt lat="31.61291" lon="34.951634">
<ele>330</ele>
<time>2021-06-02T00:49:52Z</time></trkpt>
<trkpt lat="31.61279" lon="34.951719">
<ele>330</ele>
<time>2021-06-02T00:49:55Z</time></trkpt>
<trkpt lat="31.612668" lon="34.951926">
<ele>331</ele>
<time>2021-06-02T00:49:59Z</time></trkpt>
<trkpt lat="31.612449" lon="34.952458">
<ele>333</ele>
<time>2021-06-02T00:50:09Z</time></trkpt>
<trkpt lat="31.61244" lon="34.952711">
<ele>334</ele>
<time>2021-06-02T00:50:13Z</time></trkpt>
<trkpt lat="31.612472" lon="34.952874">
<ele>335</ele>
<time>2021-06-02T00:50:16Z</time></trkpt>
<trkpt lat="31.612472" lon="34.952959">
<ele>335</ele>
<time>2021-06-02T00:50:18Z</time></trkpt>
<trkpt lat="31.61245" lon="34.953083">
<ele>335</ele>
<time>2021-06-02T00:50:20Z</time></trkpt>
<trkpt lat="31.612301" lon="34.95337">
<ele>334</ele>
<time>2021-06-02T00:50:26Z</time></trkpt>
<trkpt lat="31.612222" lon="34.953606">
<ele>334</ele>
<time>2021-06-02T00:50:30Z</time></trkpt>
<trkpt lat="31.612227" lon="34.954108">
<ele>335</ele>
<time>2021-06-02T00:50:39Z</time></trkpt>
<trkpt lat="31.612043" lon="34.953827">
<ele>333</ele>
<time>2021-06-02T00:50:45Z</time></trkpt>
<trkpt lat="31.6119" lon="34.953729">
<ele>332</ele>
<time>2021-06-02T00:50:48Z</time></trkpt>
<trkpt lat="31.611794" lon="34.953701">
<ele>331</ele>
<time>2021-06-02T00:50:50Z</time></trkpt>
<trkpt lat="31.611362" lon="34.953714">
<ele>330</ele>
<time>2021-06-02T00:50:59Z</time></trkpt>
<trkpt lat="31.610869" lon="34.95364">
<ele>329</ele>
<time>2021-06-02T00:51:09Z</time></trkpt>
<trkpt lat="31.611052" lon="34.953813">
<ele>330</ele>
<time>2021-06-02T00:51:13Z</time></trkpt>
<trkpt lat="31.611797" lon="34.954088">
<ele>333</ele>
<time>2021-06-02T00:51:29Z</time></trkpt>
<trkpt lat="31.611981" lon="34.95436">
<ele>337</ele>
<time>2021-06-02T00:51:35Z</time></trkpt>
<trkpt lat="31.61225" lon="34.954887">
<ele>341</ele>
<time>2021-06-02T00:51:46Z</time></trkpt>
<trkpt lat="31.612792" lon="34.956203">
<ele>349</ele>
<time>2021-06-02T00:52:10Z</time></trkpt>
<trkpt lat="31.612919" lon="34.956624">
<ele>349</ele>
<time>2021-06-02T00:52:18Z</time></trkpt>
<trkpt lat="31.61295" lon="34.956776">
<ele>349</ele>
<time>2021-06-02T00:52:21Z</time></trkpt>
<trkpt lat="31.612955" lon="34.957028">
<ele>351</ele>
<time>2021-06-02T00:52:25Z</time></trkpt>
<trkpt lat="31.612941" lon="34.957142">
<ele>352</ele>
<time>2021-06-02T00:52:27Z</time></trkpt>
<trkpt lat="31.612855" lon="34.957458">
<ele>356</ele>
<time>2021-06-02T00:52:33Z</time></trkpt>
<trkpt lat="31.612651" lon="34.957981">
<ele>360</ele>
<time>2021-06-02T00:52:42Z</time></trkpt>
<trkpt lat="31.612586" lon="34.958219">
<ele>361</ele>
<time>2021-06-02T00:52:47Z</time></trkpt>
<trkpt lat="31.612573" lon="34.958427">
<ele>361</ele>
<time>2021-06-02T00:52:50Z</time></trkpt>
<trkpt lat="31.612592" lon="34.95856">
<ele>362</ele>
<time>2021-06-02T00:52:53Z</time></trkpt>
<trkpt lat="31.612736" lon="34.958956">
<ele>362</ele>
<time>2021-06-02T00:53:00Z</time></trkpt>
<trkpt lat="31.612962" lon="34.959497">
<ele>364</ele>
<time>2021-06-02T00:53:10Z</time></trkpt>
<trkpt lat="31.613186" lon="34.960132">
<ele>369</ele>
<time>2021-06-02T00:53:22Z</time></trkpt>
<trkpt lat="31.613503" lon="34.961726">
<ele>381</ele>
<time>2021-06-02T00:53:50Z</time></trkpt>
<trkpt lat="31.613608" lon="34.962367">
<ele>386</ele>
<time>2021-06-02T00:54:01Z</time></trkpt>
<trkpt lat="31.613633" lon="34.962625">
<ele>387</ele>
<time>2021-06-02T00:54:05Z</time></trkpt>
<trkpt lat="31.613634" lon="34.962815">
<ele>389</ele>
<time>2021-06-02T00:54:09Z</time></trkpt>
<trkpt lat="31.613722" lon="34.963948">
<ele>397</ele>
<time>2021-06-02T00:54:28Z</time></trkpt>
<trkpt lat="31.613746" lon="34.964948">
<ele>405</ele>
<time>2021-06-02T00:54:45Z</time></trkpt>
<trkpt lat="31.613757" lon="34.965009">
<ele>405</ele>
<time>2021-06-02T00:54:46Z</time></trkpt>
<trkpt lat="31.61385" lon="34.965286">
<ele>406</ele>
<time>2021-06-02T00:54:51Z</time></trkpt>
<trkpt lat="31.613935" lon="34.965395">
<ele>406</ele>
<time>2021-06-02T00:54:54Z</time></trkpt>
<trkpt lat="31.614074" lon="34.96552">
<ele>407</ele>
<time>2021-06-02T00:54:57Z</time></trkpt>
<trkpt lat="31.614259" lon="34.965643">
<ele>408</ele>
<time>2021-06-02T00:55:02Z</time></trkpt>
<trkpt lat="31.615037" lon="34.966093">
<ele>410</ele>
<time>2021-06-02T00:55:19Z</time></trkpt>
<trkpt lat="31.615453" lon="34.966304">
<ele>414</ele>
<time>2021-06-02T00:55:28Z</time></trkpt>
<trkpt lat="31.615802" lon="34.966411">
<ele>416</ele>
<time>2021-06-02T00:55:35Z</time></trkpt>
<trkpt lat="31.616403" lon="34.966439">
<ele>416</ele>
<time>2021-06-02T00:55:47Z</time></trkpt>
<trkpt lat="31.617683" lon="34.96678">
<ele>412</ele>
<time>2021-06-02T00:56:14Z</time></trkpt>
<trkpt lat="31.617911" lon="34.966813">
<ele>411</ele>
<time>2021-06-02T00:56:18Z</time></trkpt>
<trkpt lat="31.618216" lon="34.966761">
<ele>410</ele>
<time>2021-06-02T00:56:24Z</time></trkpt>
<trkpt lat="31.618623" lon="34.966625">
<ele>409</ele>
<time>2021-06-02T00:56:33Z</time></trkpt>
<trkpt lat="31.619377" lon="34.966417">
<ele>409</ele>
<time>2021-06-02T00:56:48Z</time></trkpt>
<trkpt lat="31.619734" lon="34.966407">
<ele>409</ele>
<time>2021-06-02T00:56:56Z</time></trkpt>
<trkpt lat="31.620008" lon="34.966437">
<ele>409</ele>
<time>2021-06-02T00:57:01Z</time></trkpt>
<trkpt lat="31.620735" lon="34.966559">
<ele>408</ele>
<time>2021-06-02T00:57:16Z</time></trkpt>
<trkpt lat="31.621211" lon="34.966608">
<ele>408</ele>
<time>2021-06-02T00:57:25Z</time></trkpt>
<trkpt lat="31.621383" lon="34.96665">
<ele>408</ele>
<time>2021-06-02T00:57:29Z</time></trkpt>
<trkpt lat="31.621592" lon="34.966763">
<ele>409</ele>
<time>2021-06-02T00:57:34Z</time></trkpt>
<trkpt lat="31.622001" lon="34.967101">
<ele>409</ele>
<time>2021-06-02T00:57:44Z</time></trkpt>
<trkpt lat="31.622103" lon="34.967216">
<ele>409</ele>
<time>2021-06-02T00:57:46Z</time></trkpt>
<trkpt lat="31.622244" lon="34.967433">
<ele>409</ele>
<time>2021-06-02T00:57:51Z</time></trkpt>
<trkpt lat="31.6226" lon="34.968095">
<ele>407</ele>
<time>2021-06-02T00:58:04Z</time></trkpt>
<trkpt lat="31.62264" lon="34.968228">
<ele>406</ele>
<time>2021-06-02T00:58:07Z</time></trkpt>
<trkpt lat="31.622666" lon="34.968456">
<ele>407</ele>
<time>2021-06-02T00:58:11Z</time></trkpt>
<trkpt lat="31.6226494" lon="34.9686516">
<ele>408</ele>
<time>2021-06-02T00:58:14Z</time></trkpt>
<trkpt lat="31.62264" lon="34.96883">
<ele>409</ele>
<time>2021-06-02T00:58:17Z</time></trkpt>
<trkpt lat="31.62267" lon="34.96909">
<ele>410</ele>
<time>2021-06-02T00:58:22Z</time></trkpt>
<trkpt lat="31.62269" lon="34.96914">
<ele>410</ele>
<time>2021-06-02T00:58:23Z</time></trkpt>
<trkpt lat="31.62279" lon="34.96931">
<ele>410</ele>
<time>2021-06-02T00:58:26Z</time></trkpt>
<trkpt lat="31.62291" lon="34.96941">
<ele>410</ele>
<time>2021-06-02T00:58:29Z</time></trkpt>
<trkpt lat="31.62304" lon="34.96949">
<ele>409</ele>
<time>2021-06-02T00:58:32Z</time></trkpt>
<trkpt lat="31.62346" lon="34.96969">
<ele>406</ele>
<time>2021-06-02T00:58:41Z</time></trkpt>
<trkpt lat="31.62363" lon="34.96982">
<ele>404</ele>
<time>2021-06-02T00:58:45Z</time></trkpt>
<trkpt lat="31.62369" lon="34.96989">
<ele>404</ele>
<time>2021-06-02T00:58:47Z</time></trkpt>
<trkpt lat="31.62368" lon="34.96989">
<ele>404</ele>
<time>2021-06-02T00:58:47Z</time></trkpt>
<trkpt lat="31.62382" lon="34.97011">
<ele>404</ele>
<time>2021-06-02T00:58:52Z</time></trkpt>
<trkpt lat="31.62391" lon="34.9704">
<ele>403</ele>
<time>2021-06-02T00:58:57Z</time></trkpt>
<trkpt lat="31.62393" lon="34.97057">
<ele>404</ele>
<time>2021-06-02T00:59:00Z</time></trkpt>
<trkpt lat="31.62394" lon="34.97075">
<ele>404</ele>
<time>2021-06-02T00:59:03Z</time></trkpt>
<trkpt lat="31.6239" lon="34.97101">
<ele>405</ele>
<time>2021-06-02T00:59:07Z</time></trkpt>
<trkpt lat="31.62346" lon="34.9725">
<ele>407</ele>
<time>2021-06-02T00:59:34Z</time></trkpt>
<trkpt lat="31.62346" lon="34.97276">
<ele>406</ele>
<time>2021-06-02T00:59:39Z</time></trkpt>
<trkpt lat="31.62357" lon="34.97328">
<ele>404</ele>
<time>2021-06-02T00:59:48Z</time></trkpt>
<trkpt lat="31.62357" lon="34.9735">
<ele>403</ele>
<time>2021-06-02T00:59:52Z</time></trkpt>
<trkpt lat="31.62353" lon="34.97367">
<ele>402</ele>
<time>2021-06-02T00:59:55Z</time></trkpt>
<trkpt lat="31.62347" lon="34.97383">
<ele>401</ele>
<time>2021-06-02T00:59:58Z</time></trkpt>
<trkpt lat="31.62337" lon="34.97399">
<ele>401</ele>
<time>2021-06-02T01:00:01Z</time></trkpt>
<trkpt lat="31.62328" lon="34.97418">
<ele>401</ele>
<time>2021-06-02T01:00:05Z</time></trkpt>
<trkpt lat="31.62326" lon="34.97438">
<ele>400</ele>
<time>2021-06-02T01:00:08Z</time></trkpt>
<trkpt lat="31.62327" lon="34.97457">
<ele>400</ele>
<time>2021-06-02T01:00:12Z</time></trkpt>
<trkpt lat="31.62335" lon="34.97472">
<ele>398</ele>
<time>2021-06-02T01:00:15Z</time></trkpt>
<trkpt lat="31.62361" lon="34.97531">
<ele>395</ele>
<time>2021-06-02T01:00:26Z</time></trkpt>
<trkpt lat="31.62365" lon="34.97546">
<ele>395</ele>
<time>2021-06-02T01:00:29Z</time></trkpt>
<trkpt lat="31.62376" lon="34.97562">
<ele>394</ele>
<time>2021-06-02T01:00:32Z</time></trkpt>
<trkpt lat="31.62391" lon="34.97574">
<ele>393</ele>
<time>2021-06-02T01:00:36Z</time></trkpt>
<trkpt lat="31.62419" lon="34.97581">
<ele>391</ele>
<time>2021-06-02T01:00:41Z</time></trkpt>
<trkpt lat="31.62432" lon="34.97582">
<ele>392</ele>
<time>2021-06-02T01:00:44Z</time></trkpt>
<trkpt lat="31.62477" lon="34.97579">
<ele>393</ele>
<time>2021-06-02T01:00:53Z</time></trkpt>
<trkpt lat="31.62669" lon="34.97588">
<ele>401</ele>
<time>2021-06-02T01:01:32Z</time></trkpt>
<trkpt lat="31.62681" lon="34.9759">
<ele>401</ele>
<time>2021-06-02T01:01:34Z</time></trkpt>
<trkpt lat="31.62702" lon="34.97597">
<ele>402</ele>
<time>2021-06-02T01:01:38Z</time></trkpt>
<trkpt lat="31.62701" lon="34.97597">
<ele>402</ele>
<time>2021-06-02T01:01:39Z</time></trkpt>
<trkpt lat="31.62772" lon="34.97637">
<ele>405</ele>
<time>2021-06-02T01:01:54Z</time></trkpt>
<trkpt lat="31.6283" lon="34.97677">
<ele>406</ele>
<time>2021-06-02T01:02:08Z</time></trkpt>
<trkpt lat="31.62843" lon="34.97692">
<ele>407</ele>
<time>2021-06-02T01:02:11Z</time></trkpt>
<trkpt lat="31.62851" lon="34.97704">
<ele>407</ele>
<time>2021-06-02T01:02:14Z</time></trkpt>
<trkpt lat="31.62876" lon="34.97758">
<ele>410</ele>
<time>2021-06-02T01:02:25Z</time></trkpt>
<trkpt lat="31.62882" lon="34.97768">
<ele>410</ele>
<time>2021-06-02T01:02:27Z</time></trkpt>
<trkpt lat="31.62886" lon="34.97772">
<ele>410</ele>
<time>2021-06-02T01:02:28Z</time></trkpt>
<trkpt lat="31.62894" lon="34.97776">
<ele>410</ele>
<time>2021-06-02T01:02:29Z</time></trkpt>
<trkpt lat="31.62908" lon="34.97776">
<ele>410</ele>
<time>2021-06-02T01:02:32Z</time></trkpt>
<trkpt lat="31.62919" lon="34.97772">
<ele>409</ele>
<time>2021-06-02T01:02:35Z</time></trkpt>
<trkpt lat="31.62943" lon="34.97757">
<ele>410</ele>
<time>2021-06-02T01:02:40Z</time></trkpt>
<trkpt lat="31.6297" lon="34.97746">
<ele>411</ele>
<time>2021-06-02T01:02:46Z</time></trkpt>
<trkpt lat="31.6301" lon="34.9774">
<ele>413</ele>
<time>2021-06-02T01:02:54Z</time></trkpt>
<trkpt lat="31.63018" lon="34.97733">
<ele>413</ele>
<time>2021-06-02T01:02:56Z</time></trkpt>
<trkpt lat="31.63026" lon="34.97717">
<ele>413</ele>
<time>2021-06-02T01:02:59Z</time></trkpt>
<trkpt lat="31.63031" lon="34.97696">
<ele>413</ele>
<time>2021-06-02T01:03:03Z</time></trkpt>
<trkpt lat="31.6304" lon="34.97692">
<ele>414</ele>
<time>2021-06-02T01:03:05Z</time></trkpt>
<trkpt lat="31.63088" lon="34.97692">
<ele>420</ele>
<time>2021-06-02T01:03:14Z</time></trkpt>
<trkpt lat="31.63099" lon="34.9769">
<ele>421</ele>
<time>2021-06-02T01:03:16Z</time></trkpt>
<trkpt lat="31.63146" lon="34.9769">
<ele>424</ele>
<time>2021-06-02T01:03:26Z</time></trkpt>
<trkpt lat="31.63168" lon="34.97697">
<ele>425</ele>
<time>2021-06-02T01:03:30Z</time></trkpt>
<trkpt lat="31.63187" lon="34.977">
<ele>425</ele>
<time>2021-06-02T01:03:34Z</time></trkpt>
<trkpt lat="31.63209" lon="34.97711">
<ele>424</ele>
<time>2021-06-02T01:03:39Z</time></trkpt>
<trkpt lat="31.63222" lon="34.97714">
<ele>423</ele>
<time>2021-06-02T01:03:42Z</time></trkpt>
<trkpt lat="31.63265" lon="34.9771">
<ele>421</ele>
<time>2021-06-02T01:03:50Z</time></trkpt>
<trkpt lat="31.63282" lon="34.97702">
<ele>420</ele>
<time>2021-06-02T01:03:54Z</time></trkpt>
<trkpt lat="31.63346" lon="34.9769">
<ele>415</ele>
<time>2021-06-02T01:04:07Z</time></trkpt>
<trkpt lat="31.63391" lon="34.97681">
<ele>411</ele>
<time>2021-06-02T01:04:16Z</time></trkpt>
<trkpt lat="31.63435" lon="34.97667">
<ele>408</ele>
<time>2021-06-02T01:04:25Z</time></trkpt>
<trkpt lat="31.63494" lon="34.97632">
<ele>406</ele>
<time>2021-06-02T01:04:39Z</time></trkpt>
<trkpt lat="31.63557" lon="34.97603">
<ele>405</ele>
<time>2021-06-02T01:04:52Z</time></trkpt>
<trkpt lat="31.63588" lon="34.97593">
<ele>403</ele>
<time>2021-06-02T01:04:59Z</time></trkpt>
<trkpt lat="31.63603" lon="34.97591">
<ele>401</ele>
<time>2021-06-02T01:05:02Z</time></trkpt>
<trkpt lat="31.63617" lon="34.97596">
<ele>400</ele>
<time>2021-06-02T01:05:05Z</time></trkpt>
<trkpt lat="31.6365" lon="34.9763">
<ele>400</ele>
<time>2021-06-02T01:05:13Z</time></trkpt>
<trkpt lat="31.63683" lon="34.97648">
<ele>399</ele>
<time>2021-06-02T01:05:21Z</time></trkpt>
<trkpt lat="31.63696" lon="34.97653">
<ele>399</ele>
<time>2021-06-02T01:05:23Z</time></trkpt>
<trkpt lat="31.63724" lon="34.97672">
<ele>400</ele>
<time>2021-06-02T01:05:30Z</time></trkpt>
<trkpt lat="31.6373" lon="34.97679">
<ele>401</ele>
<time>2021-06-02T01:05:32Z</time></trkpt>
<trkpt lat="31.63754" lon="34.97717">
<ele>404</ele>
<time>2021-06-02T01:05:40Z</time></trkpt>
<trkpt lat="31.63764" lon="34.97739">
<ele>405</ele>
<time>2021-06-02T01:05:44Z</time></trkpt>
<trkpt lat="31.63765" lon="34.9775">
<ele>406</ele>
<time>2021-06-02T01:05:46Z</time></trkpt>
<trkpt lat="31.63765" lon="34.97762">
<ele>407</ele>
<time>2021-06-02T01:05:48Z</time></trkpt>
<trkpt lat="31.63769" lon="34.97771">
<ele>407</ele>
<time>2021-06-02T01:05:50Z</time></trkpt>
<trkpt lat="31.63771" lon="34.97794">
<ele>409</ele>
<time>2021-06-02T01:05:53Z</time></trkpt>
<trkpt lat="31.6377" lon="34.97817">
<ele>411</ele>
<time>2021-06-02T01:05:57Z</time></trkpt>
<trkpt lat="31.6376" lon="34.97862">
<ele>415</ele>
<time>2021-06-02T01:06:05Z</time></trkpt>
<trkpt lat="31.63759" lon="34.97897">
<ele>417</ele>
<time>2021-06-02T01:06:11Z</time></trkpt>
<trkpt lat="31.63766" lon="34.97953">
<ele>420</ele>
<time>2021-06-02T01:06:21Z</time></trkpt>
<trkpt lat="31.6377" lon="34.97961">
<ele>420</ele>
<time>2021-06-02T01:06:23Z</time></trkpt>
<trkpt lat="31.63784" lon="34.97977">
<ele>420</ele>
<time>2021-06-02T01:06:26Z</time></trkpt>
<trkpt lat="31.63802" lon="34.97993">
<ele>421</ele>
<time>2021-06-02T01:06:31Z</time></trkpt>
<trkpt lat="31.63842" lon="34.98019">
<ele>422</ele>
<time>2021-06-02T01:06:40Z</time></trkpt>
<trkpt lat="31.63886" lon="34.98062">
<ele>426</ele>
<time>2021-06-02T01:06:52Z</time></trkpt>
<trkpt lat="31.63893" lon="34.98097">
<ele>427</ele>
<time>2021-06-02T01:06:58Z</time></trkpt>
<trkpt lat="31.63896" lon="34.98154">
<ele>427</ele>
<time>2021-06-02T01:07:07Z</time></trkpt>
<trkpt lat="31.63887" lon="34.9824">
<ele>425</ele>
<time>2021-06-02T01:07:22Z</time></trkpt>
<trkpt lat="31.63879" lon="34.983">
<ele>426</ele>
<time>2021-06-02T01:07:33Z</time></trkpt>
<trkpt lat="31.63879" lon="34.98317">
<ele>426</ele>
<time>2021-06-02T01:07:36Z</time></trkpt>
<trkpt lat="31.63882" lon="34.98328">
<ele>426</ele>
<time>2021-06-02T01:07:37Z</time></trkpt>
<trkpt lat="31.63894" lon="34.9834">
<ele>426</ele>
<time>2021-06-02T01:07:41Z</time></trkpt>
<trkpt lat="31.63909" lon="34.98344">
<ele>424</ele>
<time>2021-06-02T01:07:44Z</time></trkpt>
<trkpt lat="31.6392" lon="34.98341">
<ele>424</ele>
<time>2021-06-02T01:07:46Z</time></trkpt>
<trkpt lat="31.6394" lon="34.98329">
<ele>423</ele>
<time>2021-06-02T01:07:51Z</time></trkpt>
<trkpt lat="31.6396" lon="34.98309">
<ele>421</ele>
<time>2021-06-02T01:07:56Z</time></trkpt>
<trkpt lat="31.63973" lon="34.983">
<ele>421</ele>
<time>2021-06-02T01:07:59Z</time></trkpt>
<trkpt lat="31.64027" lon="34.98276">
<ele>417</ele>
<time>2021-06-02T01:08:10Z</time></trkpt>
<trkpt lat="31.64038" lon="34.98273">
<ele>417</ele>
<time>2021-06-02T01:08:13Z</time></trkpt>
<trkpt lat="31.64051" lon="34.98271">
<ele>416</ele>
<time>2021-06-02T01:08:15Z</time></trkpt>
<trkpt lat="31.64093" lon="34.98278">
<ele>415</ele>
<time>2021-06-02T01:08:24Z</time></trkpt>
<trkpt lat="31.64121" lon="34.98289">
<ele>414</ele>
<time>2021-06-02T01:08:30Z</time></trkpt>
<trkpt lat="31.64155" lon="34.98309">
<ele>413</ele>
<time>2021-06-02T01:08:37Z</time></trkpt>
<trkpt lat="31.64168" lon="34.98319">
<ele>413</ele>
<time>2021-06-02T01:08:40Z</time></trkpt>
<trkpt lat="31.64174" lon="34.98328">
<ele>413</ele>
<time>2021-06-02T01:08:42Z</time></trkpt>
<trkpt lat="31.64181" lon="34.98342">
<ele>414</ele>
<time>2021-06-02T01:08:45Z</time></trkpt>
<trkpt lat="31.64188" lon="34.98368">
<ele>415</ele>
<time>2021-06-02T01:08:50Z</time></trkpt>
<trkpt lat="31.6419" lon="34.98396">
<ele>416</ele>
<time>2021-06-02T01:08:55Z</time></trkpt>
<trkpt lat="31.64192" lon="34.9841">
<ele>416</ele>
<time>2021-06-02T01:08:57Z</time></trkpt>
<trkpt lat="31.64198" lon="34.98422">
<ele>417</ele>
<time>2021-06-02T01:08:59Z</time></trkpt>
<trkpt lat="31.64209" lon="34.98425">
<ele>417</ele>
<time>2021-06-02T01:09:02Z</time></trkpt>
<trkpt lat="31.64218" lon="34.98421">
<ele>417</ele>
<time>2021-06-02T01:09:04Z</time></trkpt>
<trkpt lat="31.64237" lon="34.98403">
<ele>415</ele>
<time>2021-06-02T01:09:08Z</time></trkpt>
<trkpt lat="31.64249" lon="34.98394">
<ele>415</ele>
<time>2021-06-02T01:09:11Z</time></trkpt>
<trkpt lat="31.64277" lon="34.98379">
<ele>416</ele>
<time>2021-06-02T01:09:17Z</time></trkpt>
<trkpt lat="31.64283" lon="34.98372">
<ele>417</ele>
<time>2021-06-02T01:09:19Z</time></trkpt>
<trkpt lat="31.64286" lon="34.98367">
<ele>417</ele>
<time>2021-06-02T01:09:20Z</time></trkpt>
<trkpt lat="31.64288" lon="34.98358">
<ele>416</ele>
<time>2021-06-02T01:09:22Z</time></trkpt>
<trkpt lat="31.6429" lon="34.98323">
<ele>415</ele>
<time>2021-06-02T01:09:28Z</time></trkpt>
<trkpt lat="31.64293" lon="34.98312">
<ele>414</ele>
<time>2021-06-02T01:09:30Z</time></trkpt>
<trkpt lat="31.64303" lon="34.9829">
<ele>414</ele>
<time>2021-06-02T01:09:34Z</time></trkpt>
<trkpt lat="31.64321" lon="34.98275">
<ele>415</ele>
<time>2021-06-02T01:09:38Z</time></trkpt>
<trkpt lat="31.64336" lon="34.98268">
<ele>415</ele>
<time>2021-06-02T01:09:42Z</time></trkpt>
<trkpt lat="31.64352" lon="34.98263">
<ele>415</ele>
<time>2021-06-02T01:09:45Z</time></trkpt>
<trkpt lat="31.64395" lon="34.98257">
<ele>416</ele>
<time>2021-06-02T01:09:54Z</time></trkpt>
<trkpt lat="31.64441" lon="34.98257">
<ele>416</ele>
<time>2021-06-02T01:10:03Z</time></trkpt>
<trkpt lat="31.6447" lon="34.98259">
<ele>416</ele>
<time>2021-06-02T01:10:09Z</time></trkpt>
<trkpt lat="31.64488" lon="34.98263">
<ele>416</ele>
<time>2021-06-02T01:10:12Z</time></trkpt>
<trkpt lat="31.64507" lon="34.98263">
<ele>416</ele>
<time>2021-06-02T01:10:16Z</time></trkpt>
<trkpt lat="31.64527" lon="34.98255">
<ele>416</ele>
<time>2021-06-02T01:10:20Z</time></trkpt>
<trkpt lat="31.64546" lon="34.98237">
<ele>416</ele>
<time>2021-06-02T01:10:25Z</time></trkpt>
<trkpt lat="31.64599" lon="34.9816">
<ele>413</ele>
<time>2021-06-02T01:10:42Z</time></trkpt>
<trkpt lat="31.6463" lon="34.98095">
<ele>412</ele>
<time>2021-06-02T01:10:55Z</time></trkpt>
<trkpt lat="31.64642" lon="34.98078">
<ele>411</ele>
<time>2021-06-02T01:10:59Z</time></trkpt>
<trkpt lat="31.6465" lon="34.98071">
<ele>411</ele>
<time>2021-06-02T01:11:01Z</time></trkpt>
<trkpt lat="31.6466" lon="34.98066">
<ele>411</ele>
<time>2021-06-02T01:11:03Z</time></trkpt>
<trkpt lat="31.64671" lon="34.98066">
<ele>411</ele>
<time>2021-06-02T01:11:05Z</time></trkpt>
<trkpt lat="31.64679" lon="34.98073">
<ele>410</ele>
<time>2021-06-02T01:11:07Z</time></trkpt>
<trkpt lat="31.64692" lon="34.98098">
<ele>408</ele>
<time>2021-06-02T01:11:12Z</time></trkpt>
<trkpt lat="31.64711" lon="34.98153">
<ele>407</ele>
<time>2021-06-02T01:11:22Z</time></trkpt>
<trkpt lat="31.64717" lon="34.98169">
<ele>407</ele>
<time>2021-06-02T01:11:25Z</time></trkpt>
<trkpt lat="31.64728" lon="34.98178">
<ele>407</ele>
<time>2021-06-02T01:11:28Z</time></trkpt>
<trkpt lat="31.64742" lon="34.98179">
<ele>406</ele>
<time>2021-06-02T01:11:31Z</time></trkpt>
<trkpt lat="31.64754" lon="34.98173">
<ele>405</ele>
<time>2021-06-02T01:11:33Z</time></trkpt>
<trkpt lat="31.64778" lon="34.98153">
<ele>403</ele>
<time>2021-06-02T01:11:39Z</time></trkpt>
<trkpt lat="31.64803" lon="34.98141">
<ele>401</ele>
<time>2021-06-02T01:11:45Z</time></trkpt>
<trkpt lat="31.64831" lon="34.98134">
<ele>399</ele>
<time>2021-06-02T01:11:50Z</time></trkpt>
<trkpt lat="31.64863" lon="34.98131">
<ele>397</ele>
<time>2021-06-02T01:11:57Z</time></trkpt>
<trkpt lat="31.64943" lon="34.9813">
<ele>389</ele>
<time>2021-06-02T01:12:13Z</time></trkpt>
<trkpt lat="31.6496" lon="34.98135">
<ele>387</ele>
<time>2021-06-02T01:12:16Z</time></trkpt>
<trkpt lat="31.64976" lon="34.98148">
<ele>384</ele>
<time>2021-06-02T01:12:20Z</time></trkpt>
<trkpt lat="31.64995" lon="34.9817">
<ele>381</ele>
<time>2021-06-02T01:12:26Z</time></trkpt>
<trkpt lat="31.65002" lon="34.98188">
<ele>380</ele>
<time>2021-06-02T01:12:29Z</time></trkpt>
<trkpt lat="31.65009" lon="34.9821">
<ele>379</ele>
<time>2021-06-02T01:12:33Z</time></trkpt>
<trkpt lat="31.65013" lon="34.98249">
<ele>379</ele>
<time>2021-06-02T01:12:40Z</time></trkpt>
<trkpt lat="31.6501" lon="34.98268">
<ele>379</ele>
<time>2021-06-02T01:12:43Z</time></trkpt>
<trkpt lat="31.65" lon="34.98306">
<ele>379</ele>
<time>2021-06-02T01:12:50Z</time></trkpt>
<trkpt lat="31.64999" lon="34.98322">
<ele>379</ele>
<time>2021-06-02T01:12:52Z</time></trkpt>
<trkpt lat="31.65005" lon="34.98331">
<ele>379</ele>
<time>2021-06-02T01:12:54Z</time></trkpt>
<trkpt lat="31.65015" lon="34.98332">
<ele>380</ele>
<time>2021-06-02T01:12:56Z</time></trkpt>
<trkpt lat="31.65045" lon="34.98313">
<ele>381</ele>
<time>2021-06-02T01:13:03Z</time></trkpt>
<trkpt lat="31.65064" lon="34.98306">
<ele>381</ele>
<time>2021-06-02T01:13:07Z</time></trkpt>
<trkpt lat="31.6509" lon="34.98301">
<ele>380</ele>
<time>2021-06-02T01:13:12Z</time></trkpt>
<trkpt lat="31.65119" lon="34.98307">
<ele>381</ele>
<time>2021-06-02T01:13:18Z</time></trkpt>
<trkpt lat="31.65146" lon="34.98323">
<ele>384</ele>
<time>2021-06-02T01:13:24Z</time></trkpt>
<trkpt lat="31.65152" lon="34.9833">
<ele>385</ele>
<time>2021-06-02T01:13:26Z</time></trkpt>
<trkpt lat="31.65169" lon="34.98364">
<ele>389</ele>
<time>2021-06-02T01:13:33Z</time></trkpt>
<trkpt lat="31.65183" lon="34.98409">
<ele>393</ele>
<time>2021-06-02T01:13:41Z</time></trkpt>
<trkpt lat="31.65191" lon="34.98449">
<ele>400</ele>
<time>2021-06-02T01:13:48Z</time></trkpt>
<trkpt lat="31.65197" lon="34.98458">
<ele>401</ele>
<time>2021-06-02T01:13:50Z</time></trkpt>
<trkpt lat="31.65204" lon="34.98466">
<ele>402</ele>
<time>2021-06-02T01:13:52Z</time></trkpt>
<trkpt lat="31.65222" lon="34.98477">
<ele>402</ele>
<time>2021-06-02T01:13:56Z</time></trkpt>
<trkpt lat="31.65242" lon="34.98481">
<ele>400</ele>
<time>2021-06-02T01:14:00Z</time></trkpt>
<trkpt lat="31.65269" lon="34.98494">
<ele>399</ele>
<time>2021-06-02T01:14:06Z</time></trkpt>
<trkpt lat="31.65301" lon="34.98521">
<ele>399</ele>
<time>2021-06-02T01:14:14Z</time></trkpt>
<trkpt lat="31.65324" lon="34.9855">
<ele>400</ele>
<time>2021-06-02T01:14:21Z</time></trkpt>
<trkpt lat="31.6534" lon="34.98578">
<ele>401</ele>
<time>2021-06-02T01:14:26Z</time></trkpt>
<trkpt lat="31.65347" lon="34.98596">
<ele>400</ele>
<time>2021-06-02T01:14:30Z</time></trkpt>
<trkpt lat="31.65356" lon="34.98628">
<ele>399</ele>
<time>2021-06-02T01:14:35Z</time></trkpt>
<trkpt lat="31.65358" lon="34.98653">
<ele>399</ele>
<time>2021-06-02T01:14:40Z</time></trkpt>
<trkpt lat="31.65356" lon="34.98668">
<ele>400</ele>
<time>2021-06-02T01:14:42Z</time></trkpt>
<trkpt lat="31.65352" lon="34.98682">
<ele>400</ele>
<time>2021-06-02T01:14:45Z</time></trkpt>
<trkpt lat="31.65342" lon="34.987">
<ele>400</ele>
<time>2021-06-02T01:14:48Z</time></trkpt>
<trkpt lat="31.65328" lon="34.98719">
<ele>401</ele>
<time>2021-06-02T01:14:53Z</time></trkpt>
<trkpt lat="31.65295" lon="34.98751">
<ele>403</ele>
<time>2021-06-02T01:15:01Z</time></trkpt>
<trkpt lat="31.65268" lon="34.98784">
<ele>404</ele>
<time>2021-06-02T01:15:09Z</time></trkpt>
<trkpt lat="31.65263" lon="34.98793">
<ele>403</ele>
<time>2021-06-02T01:15:11Z</time></trkpt>
<trkpt lat="31.65257" lon="34.98811">
<ele>402</ele>
<time>2021-06-02T01:15:14Z</time></trkpt>
<trkpt lat="31.65253" lon="34.98836">
<ele>400</ele>
<time>2021-06-02T01:15:19Z</time></trkpt>
<trkpt lat="31.65254" lon="34.98855">
<ele>399</ele>
<time>2021-06-02T01:15:22Z</time></trkpt>
<trkpt lat="31.65271" lon="34.98974">
<ele>394</ele>
<time>2021-06-02T01:15:42Z</time></trkpt>
<trkpt lat="31.65271" lon="34.98973">
<ele>394</ele>
<time>2021-06-02T01:15:43Z</time></trkpt>
<trkpt lat="31.65274" lon="34.98993">
<ele>393</ele>
<time>2021-06-02T01:15:46Z</time></trkpt>
<trkpt lat="31.6527" lon="34.99015">
<ele>393</ele>
<time>2021-06-02T01:15:50Z</time></trkpt>
<trkpt lat="31.65265" lon="34.99031">
<ele>393</ele>
<time>2021-06-02T01:15:53Z</time></trkpt>
<trkpt lat="31.65257" lon="34.99048">
<ele>393</ele>
<time>2021-06-02T01:15:56Z</time></trkpt>
<trkpt lat="31.65244" lon="34.99058">
<ele>394</ele>
<time>2021-06-02T01:15:59Z</time></trkpt>
<trkpt lat="31.65254" lon="34.99091">
<ele>393</ele>
<time>2021-06-02T01:16:05Z</time></trkpt>
<trkpt lat="31.65286" lon="34.99141">
<ele>396</ele>
<time>2021-06-02T01:16:16Z</time></trkpt>
<trkpt lat="31.65315" lon="34.99152">
<ele>397</ele>
<time>2021-06-02T01:16:22Z</time></trkpt>
<trkpt lat="31.65326" lon="34.99154">
<ele>397</ele>
<time>2021-06-02T01:16:24Z</time></trkpt>
<trkpt lat="31.65329" lon="34.99095">
<ele>394</ele>
<time>2021-06-02T01:16:34Z</time></trkpt>
<trkpt lat="31.65334" lon="34.99061">
<ele>392</ele>
<time>2021-06-02T01:16:40Z</time></trkpt>
<trkpt lat="31.65366" lon="34.98939">
<ele>391</ele>
<time>2021-06-02T01:17:02Z</time></trkpt>
<trkpt lat="31.6538" lon="34.98901">
<ele>390</ele>
<time>2021-06-02T01:17:09Z</time></trkpt>
<trkpt lat="31.65388" lon="34.98888">
<ele>390</ele>
<time>2021-06-02T01:17:12Z</time></trkpt>
<trkpt lat="31.65432" lon="34.98832">
<ele>387</ele>
<time>2021-06-02T01:17:25Z</time></trkpt>
<trkpt lat="31.65448" lon="34.98811">
<ele>387</ele>
<time>2021-06-02T01:17:30Z</time></trkpt>
<trkpt lat="31.65465" lon="34.98781">
<ele>386</ele>
<time>2021-06-02T01:17:36Z</time></trkpt>
<trkpt lat="31.6548" lon="34.98749">
<ele>384</ele>
<time>2021-06-02T01:17:42Z</time></trkpt>
<trkpt lat="31.6549" lon="34.98725">
<ele>383</ele>
<time>2021-06-02T01:17:47Z</time></trkpt>
<trkpt lat="31.655" lon="34.98695">
<ele>380</ele>
<time>2021-06-02T01:17:52Z</time></trkpt>
<trkpt lat="31.65503" lon="34.98681">
<ele>379</ele>
<time>2021-06-02T01:17:54Z</time></trkpt>
<trkpt lat="31.6551" lon="34.98618">
<ele>377</ele>
<time>2021-06-02T01:18:05Z</time></trkpt>
<trkpt lat="31.65509" lon="34.98603">
<ele>376</ele>
<time>2021-06-02T01:18:08Z</time></trkpt>
<trkpt lat="31.65504" lon="34.98575">
<ele>375</ele>
<time>2021-06-02T01:18:13Z</time></trkpt>
<trkpt lat="31.65472" lon="34.98493">
<ele>377</ele>
<time>2021-06-02T01:18:28Z</time></trkpt>
<trkpt lat="31.65465" lon="34.98482">
<ele>377</ele>
<time>2021-06-02T01:18:31Z</time></trkpt>
<trkpt lat="31.65371" lon="34.98362">
<ele>376</ele>
<time>2021-06-02T01:18:58Z</time></trkpt>
<trkpt lat="31.65363" lon="34.98349">
<ele>375</ele>
<time>2021-06-02T01:19:01Z</time></trkpt>
<trkpt lat="31.65302" lon="34.98229">
<ele>370</ele>
<time>2021-06-02T01:19:25Z</time></trkpt>
<trkpt lat="31.65263" lon="34.98168">
<ele>366</ele>
<time>2021-06-02T01:19:38Z</time></trkpt>
<trkpt lat="31.65256" lon="34.98153">
<ele>365</ele>
<time>2021-06-02T01:19:41Z</time></trkpt>
<trkpt lat="31.65251" lon="34.98138">
<ele>364</ele>
<time>2021-06-02T01:19:44Z</time></trkpt>
<trkpt lat="31.6525" lon="34.98122">
<ele>363</ele>
<time>2021-06-02T01:19:46Z</time></trkpt>
<trkpt lat="31.65254" lon="34.98086">
<ele>364</ele>
<time>2021-06-02T01:19:52Z</time></trkpt>
<trkpt lat="31.65259" lon="34.98054">
<ele>364</ele>
<time>2021-06-02T01:19:58Z</time></trkpt>
<trkpt lat="31.65294" lon="34.97951">
<ele>366</ele>
<time>2021-06-02T01:20:17Z</time></trkpt>
<trkpt lat="31.65321" lon="34.97853">
<ele>361</ele>
<time>2021-06-02T01:20:35Z</time></trkpt>
<trkpt lat="31.65328" lon="34.97834">
<ele>360</ele>
<time>2021-06-02T01:20:38Z</time></trkpt>
<trkpt lat="31.65323" lon="34.97804">
<ele>361</ele>
<time>2021-06-02T01:20:43Z</time></trkpt>
<trkpt lat="31.65301" lon="34.97736">
<ele>361</ele>
<time>2021-06-02T01:20:56Z</time></trkpt>
<trkpt lat="31.65291" lon="34.97678">
<ele>358</ele>
<time>2021-06-02T01:21:06Z</time></trkpt>
<trkpt lat="31.65284" lon="34.97651">
<ele>357</ele>
<time>2021-06-02T01:21:11Z</time></trkpt>
<trkpt lat="31.65283" lon="34.97651">
<ele>357</ele>
<time>2021-06-02T01:21:11Z</time></trkpt>
<trkpt lat="31.65282" lon="34.97644">
<ele>357</ele>
<time>2021-06-02T01:21:12Z</time></trkpt>
<trkpt lat="31.6527" lon="34.97621">
<ele>355</ele>
<time>2021-06-02T01:21:17Z</time></trkpt>
<trkpt lat="31.6525" lon="34.97592">
<ele>353</ele>
<time>2021-06-02T01:21:23Z</time></trkpt>
<trkpt lat="31.6524" lon="34.97569">
<ele>353</ele>
<time>2021-06-02T01:21:27Z</time></trkpt>
<trkpt lat="31.65238" lon="34.97556">
<ele>353</ele>
<time>2021-06-02T01:21:30Z</time></trkpt>
<trkpt lat="31.6524" lon="34.97532">
<ele>352</ele>
<time>2021-06-02T01:21:34Z</time></trkpt>
<trkpt lat="31.65246" lon="34.9751">
<ele>351</ele>
<time>2021-06-02T01:21:38Z</time></trkpt>
<trkpt lat="31.6525" lon="34.97499">
<ele>350</ele>
<time>2021-06-02T01:21:40Z</time></trkpt>
<trkpt lat="31.65301" lon="34.974">
<ele>351</ele>
<time>2021-06-02T01:21:59Z</time></trkpt>
<trkpt lat="31.65306" lon="34.97377">
<ele>350</ele>
<time>2021-06-02T01:22:04Z</time></trkpt>
<trkpt lat="31.65309" lon="34.97322">
<ele>349</ele>
<time>2021-06-02T01:22:13Z</time></trkpt>
<trkpt lat="31.65312" lon="34.97305">
<ele>349</ele>
<time>2021-06-02T01:22:16Z</time></trkpt>
<trkpt lat="31.65324" lon="34.97266">
<ele>348</ele>
<time>2021-06-02T01:22:23Z</time></trkpt>
<trkpt lat="31.6534" lon="34.97224">
<ele>347</ele>
<time>2021-06-02T01:22:31Z</time></trkpt>
<trkpt lat="31.65364" lon="34.97176">
<ele>348</ele>
<time>2021-06-02T01:22:40Z</time></trkpt>
<trkpt lat="31.65369" lon="34.9716">
<ele>348</ele>
<time>2021-06-02T01:22:43Z</time></trkpt>
<trkpt lat="31.65381" lon="34.97092">
<ele>345</ele>
<time>2021-06-02T01:22:55Z</time></trkpt>
<trkpt lat="31.65406" lon="34.97045">
<ele>343</ele>
<time>2021-06-02T01:23:04Z</time></trkpt>
<trkpt lat="31.65436" lon="34.96982">
<ele>342</ele>
<time>2021-06-02T01:23:17Z</time></trkpt>
<trkpt lat="31.65442" lon="34.96967">
<ele>342</ele>
<time>2021-06-02T01:23:20Z</time></trkpt>
<trkpt lat="31.65448" lon="34.96939">
<ele>342</ele>
<time>2021-06-02T01:23:25Z</time></trkpt>
<trkpt lat="31.65452" lon="34.96831">
<ele>342</ele>
<time>2021-06-02T01:23:43Z</time></trkpt>
<trkpt lat="31.65448" lon="34.96812">
<ele>342</ele>
<time>2021-06-02T01:23:46Z</time></trkpt>
<trkpt lat="31.65451" lon="34.96786">
<ele>342</ele>
<time>2021-06-02T01:23:51Z</time></trkpt>
<trkpt lat="31.65457" lon="34.96769">
<ele>342</ele>
<time>2021-06-02T01:23:54Z</time></trkpt>
<trkpt lat="31.65487" lon="34.96714">
<ele>341</ele>
<time>2021-06-02T01:24:05Z</time></trkpt>
<trkpt lat="31.65502" lon="34.96682">
<ele>338</ele>
<time>2021-06-02T01:24:11Z</time></trkpt>
<trkpt lat="31.65548" lon="34.96577">
<ele>340</ele>
<time>2021-06-02T01:24:31Z</time></trkpt>
<trkpt lat="31.65581" lon="34.96497">
<ele>333</ele>
<time>2021-06-02T01:24:47Z</time></trkpt>
<trkpt lat="31.65602" lon="34.96458">
<ele>333</ele>
<time>2021-06-02T01:24:55Z</time></trkpt>
<trkpt lat="31.65637" lon="34.9641">
<ele>332</ele>
<time>2021-06-02T01:25:05Z</time></trkpt>
<trkpt lat="31.65643" lon="34.96399">
<ele>332</ele>
<time>2021-06-02T01:25:08Z</time></trkpt>
<trkpt lat="31.65653" lon="34.96374">
<ele>331</ele>
<time>2021-06-02T01:25:12Z</time></trkpt>
<trkpt lat="31.657" lon="34.96237">
<ele>330</ele>
<time>2021-06-02T01:25:37Z</time></trkpt>
<trkpt lat="31.65707" lon="34.96195">
<ele>329</ele>
<time>2021-06-02T01:25:45Z</time></trkpt>
<trkpt lat="31.65715" lon="34.96152">
<ele>328</ele>
<time>2021-06-02T01:25:52Z</time></trkpt>
<trkpt lat="31.65723" lon="34.96118">
<ele>326</ele>
<time>2021-06-02T01:25:58Z</time></trkpt>
<trkpt lat="31.6574" lon="34.96064">
<ele>324</ele>
<time>2021-06-02T01:26:08Z</time></trkpt>
<trkpt lat="31.6575" lon="34.96035">
<ele>323</ele>
<time>2021-06-02T01:26:13Z</time></trkpt>
<trkpt lat="31.65773" lon="34.95995">
<ele>323</ele>
<time>2021-06-02T01:26:22Z</time></trkpt>
<trkpt lat="31.65789" lon="34.95977">
<ele>323</ele>
<time>2021-06-02T01:26:26Z</time></trkpt>
<trkpt lat="31.65801" lon="34.95967">
<ele>323</ele>
<time>2021-06-02T01:26:29Z</time></trkpt>
<trkpt lat="31.65815" lon="34.95959">
<ele>322</ele>
<time>2021-06-02T01:26:32Z</time></trkpt>
<trkpt lat="31.65841" lon="34.95948">
<ele>322</ele>
<time>2021-06-02T01:26:38Z</time></trkpt>
<trkpt lat="31.65899" lon="34.95928">
<ele>323</ele>
<time>2021-06-02T01:26:50Z</time></trkpt>
<trkpt lat="31.65936" lon="34.95914">
<ele>323</ele>
<time>2021-06-02T01:26:58Z</time></trkpt>
<trkpt lat="31.65944" lon="34.95909">
<ele>323</ele>
<time>2021-06-02T01:26:59Z</time></trkpt>
<trkpt lat="31.65952" lon="34.95901">
<ele>323</ele>
<time>2021-06-02T01:27:01Z</time></trkpt>
<trkpt lat="31.65958" lon="34.95892">
<ele>323</ele>
<time>2021-06-02T01:27:03Z</time></trkpt>
<trkpt lat="31.6596" lon="34.95885">
<ele>323</ele>
<time>2021-06-02T01:27:05Z</time></trkpt>
<trkpt lat="31.65961" lon="34.95877">
<ele>323</ele>
<time>2021-06-02T01:27:06Z</time></trkpt>
<trkpt lat="31.6596" lon="34.95866">
<ele>323</ele>
<time>2021-06-02T01:27:08Z</time></trkpt>
<trkpt lat="31.65956" lon="34.95859">
<ele>323</ele>
<time>2021-06-02T01:27:09Z</time></trkpt>
<trkpt lat="31.65932" lon="34.95832">
<ele>321</ele>
<time>2021-06-02T01:27:16Z</time></trkpt>
<trkpt lat="31.6588" lon="34.95782">
<ele>319</ele>
<time>2021-06-02T01:27:30Z</time></trkpt>
<trkpt lat="31.65862" lon="34.9576">
<ele>318</ele>
<time>2021-06-02T01:27:35Z</time></trkpt>
<trkpt lat="31.65856" lon="34.95747">
<ele>318</ele>
<time>2021-06-02T01:27:37Z</time></trkpt>
<trkpt lat="31.65846" lon="34.95714">
<ele>317</ele>
<time>2021-06-02T01:27:43Z</time></trkpt>
<trkpt lat="31.65842" lon="34.95685">
<ele>316</ele>
<time>2021-06-02T01:27:48Z</time></trkpt>
<trkpt lat="31.65841" lon="34.95666">
<ele>316</ele>
<time>2021-06-02T01:27:51Z</time></trkpt>
<trkpt lat="31.65843" lon="34.95637">
<ele>316</ele>
<time>2021-06-02T01:27:56Z</time></trkpt>
<trkpt lat="31.6585" lon="34.95613">
<ele>316</ele>
<time>2021-06-02T01:28:01Z</time></trkpt>
<trkpt lat="31.65897" lon="34.95519">
<ele>315</ele>
<time>2021-06-02T01:28:19Z</time></trkpt>
<trkpt lat="31.65906" lon="34.95497">
<ele>314</ele>
<time>2021-06-02T01:28:24Z</time></trkpt>
<trkpt lat="31.6591" lon="34.9548">
<ele>313</ele>
<time>2021-06-02T01:28:27Z</time></trkpt>
<trkpt lat="31.65912" lon="34.95443">
<ele>312</ele>
<time>2021-06-02T01:28:33Z</time></trkpt>
<trkpt lat="31.65912" lon="34.95378">
<ele>310</ele>
<time>2021-06-02T01:28:44Z</time></trkpt>
<trkpt lat="31.65916" lon="34.95339">
<ele>309</ele>
<time>2021-06-02T01:28:51Z</time></trkpt>
<trkpt lat="31.65928" lon="34.95273">
<ele>308</ele>
<time>2021-06-02T01:29:02Z</time></trkpt>
<trkpt lat="31.65946" lon="34.95209">
<ele>308</ele>
<time>2021-06-02T01:29:14Z</time></trkpt>
<trkpt lat="31.65957" lon="34.9516">
<ele>306</ele>
<time>2021-06-02T01:29:22Z</time></trkpt>
<trkpt lat="31.65962" lon="34.95147">
<ele>306</ele>
<time>2021-06-02T01:29:25Z</time></trkpt>
<trkpt lat="31.65968" lon="34.95136">
<ele>305</ele>
<time>2021-06-02T01:29:27Z</time></trkpt>
<trkpt lat="31.66006" lon="34.95083">
<ele>301</ele>
<time>2021-06-02T01:29:39Z</time></trkpt>
<trkpt lat="31.66012" lon="34.95077">
<ele>301</ele>
<time>2021-06-02T01:29:40Z</time></trkpt>
<trkpt lat="31.66021" lon="34.95071">
<ele>301</ele>
<time>2021-06-02T01:29:42Z</time></trkpt>
<trkpt lat="31.66041" lon="34.95065">
<ele>301</ele>
<time>2021-06-02T01:29:47Z</time></trkpt>
<trkpt lat="31.66052" lon="34.95064">
<ele>301</ele>
<time>2021-06-02T01:29:49Z</time></trkpt>
<trkpt lat="31.66068" lon="34.95067">
<ele>301</ele>
<time>2021-06-02T01:29:52Z</time></trkpt>
<trkpt lat="31.66107" lon="34.95083">
<ele>303</ele>
<time>2021-06-02T01:30:00Z</time></trkpt>
<trkpt lat="31.66123" lon="34.95087">
<ele>303</ele>
<time>2021-06-02T01:30:04Z</time></trkpt>
<trkpt lat="31.66136" lon="34.95086">
<ele>303</ele>
<time>2021-06-02T01:30:06Z</time></trkpt>
<trkpt lat="31.66173" lon="34.95066">
<ele>304</ele>
<time>2021-06-02T01:30:14Z</time></trkpt>
<trkpt lat="31.66192" lon="34.95051">
<ele>306</ele>
<time>2021-06-02T01:30:19Z</time></trkpt>
<trkpt lat="31.66209" lon="34.95028">
<ele>306</ele>
<time>2021-06-02T01:30:24Z</time></trkpt>
<trkpt lat="31.66215" lon="34.95014">
<ele>306</ele>
<time>2021-06-02T01:30:27Z</time></trkpt>
<trkpt lat="31.66219" lon="34.94998">
<ele>305</ele>
<time>2021-06-02T01:30:30Z</time></trkpt>
<trkpt lat="31.66236" lon="34.94862">
<ele>296</ele>
<time>2021-06-02T01:30:53Z</time></trkpt>
<trkpt lat="31.6625" lon="34.94829">
<ele>294</ele>
<time>2021-06-02T01:30:59Z</time></trkpt>
<trkpt lat="31.66272" lon="34.94791">
<ele>293</ele>
<time>2021-06-02T01:31:07Z</time></trkpt>
<trkpt lat="31.66287" lon="34.94774">
<ele>292</ele>
<time>2021-06-02T01:31:11Z</time></trkpt>
<trkpt lat="31.66327" lon="34.94741">
<ele>290</ele>
<time>2021-06-02T01:31:21Z</time></trkpt>
<trkpt lat="31.66342" lon="34.94737">
<ele>290</ele>
<time>2021-06-02T01:31:24Z</time></trkpt>
<trkpt lat="31.66389" lon="34.94733">
<ele>293</ele>
<time>2021-06-02T01:31:34Z</time></trkpt>
<trkpt lat="31.66398" lon="34.94728">
<ele>293</ele>
<time>2021-06-02T01:31:36Z</time></trkpt>
<trkpt lat="31.66404" lon="34.94718">
<ele>292</ele>
<time>2021-06-02T01:31:38Z</time></trkpt>
<trkpt lat="31.66423" lon="34.94643">
<ele>288</ele>
<time>2021-06-02T01:31:51Z</time></trkpt>
<trkpt lat="31.66431" lon="34.94629">
<ele>288</ele>
<time>2021-06-02T01:31:54Z</time></trkpt>
<trkpt lat="31.66445" lon="34.94616">
<ele>288</ele>
<time>2021-06-02T01:31:58Z</time></trkpt>
<trkpt lat="31.66488" lon="34.94595">
<ele>287</ele>
<time>2021-06-02T01:32:07Z</time></trkpt>
<trkpt lat="31.66541" lon="34.94593">
<ele>286</ele>
<time>2021-06-02T01:32:18Z</time></trkpt>
<trkpt lat="31.66587" lon="34.94585">
<ele>284</ele>
<time>2021-06-02T01:32:27Z</time></trkpt>
<trkpt lat="31.66636" lon="34.94569">
<ele>284</ele>
<time>2021-06-02T01:32:37Z</time></trkpt>
<trkpt lat="31.66744" lon="34.94548">
<ele>284</ele>
<time>2021-06-02T01:32:59Z</time></trkpt>
<trkpt lat="31.66776" lon="34.94556">
<ele>284</ele>
<time>2021-06-02T01:33:06Z</time></trkpt>
<trkpt lat="31.66776" lon="34.94555">
<ele>284</ele>
<time>2021-06-02T01:33:06Z</time></trkpt>
<trkpt lat="31.66795" lon="34.9456">
<ele>284</ele>
<time>2021-06-02T01:33:10Z</time></trkpt>
<trkpt lat="31.66814" lon="34.94562">
<ele>284</ele>
<time>2021-06-02T01:33:13Z</time></trkpt>
<trkpt lat="31.66826" lon="34.94568">
<ele>284</ele>
<time>2021-06-02T01:33:16Z</time></trkpt>
<trkpt lat="31.66839" lon="34.94588">
<ele>285</ele>
<time>2021-06-02T01:33:20Z</time></trkpt>
<trkpt lat="31.6688" lon="34.94517">
<ele>285</ele>
<time>2021-06-02T01:33:35Z</time></trkpt>
<trkpt lat="31.67009" lon="34.94321">
<ele>278</ele>
<time>2021-06-02T01:34:17Z</time></trkpt>
<trkpt lat="31.6693" lon="34.94281">
<ele>276</ele>
<time>2021-06-02T01:34:34Z</time></trkpt>
<trkpt lat="31.66913" lon="34.94251">
<ele>275</ele>
<time>2021-06-02T01:34:41Z</time></trkpt>
<trkpt lat="31.66924" lon="34.94236">
<ele>275</ele>
<time>2021-06-02T01:34:44Z</time></trkpt>
<trkpt lat="31.66917" lon="34.94222">
<ele>276</ele>
<time>2021-06-02T01:34:47Z</time></trkpt>
<trkpt lat="31.66891" lon="34.9419">
<ele>279</ele>
<time>2021-06-02T01:34:54Z</time></trkpt>
<trkpt lat="31.66843" lon="34.94141">
<ele>284</ele>
<time>2021-06-02T01:35:07Z</time></trkpt>
<trkpt lat="31.66843" lon="34.9414">
<ele>284</ele>
<time>2021-06-02T01:35:07Z</time></trkpt>
<trkpt lat="31.66762" lon="34.94057">
<ele>294</ele>
<time>2021-06-02T01:35:29Z</time></trkpt>
<trkpt lat="31.66745" lon="34.94051">
<ele>295</ele>
<time>2021-06-02T01:35:32Z</time></trkpt>
<trkpt lat="31.66732" lon="34.94049">
<ele>297</ele>
<time>2021-06-02T01:35:35Z</time></trkpt>
<trkpt lat="31.66647" lon="34.94048">
<ele>306</ele>
<time>2021-06-02T01:35:52Z</time></trkpt>
<trkpt lat="31.66632" lon="34.94047">
<ele>307</ele>
<time>2021-06-02T01:35:55Z</time></trkpt>
<trkpt lat="31.6658" lon="34.94038">
<ele>311</ele>
<time>2021-06-02T01:36:06Z</time></trkpt>
<trkpt lat="31.66573" lon="34.94034">
<ele>312</ele>
<time>2021-06-02T01:36:07Z</time></trkpt>
<trkpt lat="31.66569" lon="34.94026">
<ele>313</ele>
<time>2021-06-02T01:36:09Z</time></trkpt>
<trkpt lat="31.66574" lon="34.94017">
<ele>313</ele>
<time>2021-06-02T01:36:10Z</time></trkpt>
<trkpt lat="31.66652" lon="34.93997">
<ele>310</ele>
<time>2021-06-02T01:36:26Z</time></trkpt>
<trkpt lat="31.66676" lon="34.93989">
<ele>310</ele>
<time>2021-06-02T01:36:31Z</time></trkpt>
<trkpt lat="31.66694" lon="34.93978">
<ele>309</ele>
<time>2021-06-02T01:36:36Z</time></trkpt>
<trkpt lat="31.66703" lon="34.93969">
<ele>309</ele>
<time>2021-06-02T01:36:38Z</time></trkpt>
<trkpt lat="31.66739" lon="34.93926">
<ele>310</ele>
<time>2021-06-02T01:36:48Z</time></trkpt>
<trkpt lat="31.66748" lon="34.93912">
<ele>310</ele>
<time>2021-06-02T01:36:51Z</time></trkpt>
<trkpt lat="31.66764" lon="34.93878">
<ele>314</ele>
<time>2021-06-02T01:36:58Z</time></trkpt>
<trkpt lat="31.66768" lon="34.93872">
<ele>314</ele>
<time>2021-06-02T01:36:59Z</time></trkpt>
<trkpt lat="31.66774" lon="34.93868">
<ele>315</ele>
<time>2021-06-02T01:37:01Z</time></trkpt>
<trkpt lat="31.66783" lon="34.93868">
<ele>315</ele>
<time>2021-06-02T01:37:02Z</time></trkpt>
<trkpt lat="31.66792" lon="34.93879">
<ele>314</ele>
<time>2021-06-02T01:37:05Z</time></trkpt>
<trkpt lat="31.66815" lon="34.93919">
<ele>309</ele>
<time>2021-06-02T01:37:13Z</time></trkpt>
<trkpt lat="31.66834" lon="34.93944">
<ele>306</ele>
<time>2021-06-02T01:37:19Z</time></trkpt>
<trkpt lat="31.66843" lon="34.93953">
<ele>304</ele>
<time>2021-06-02T01:37:21Z</time></trkpt>
<trkpt lat="31.66863" lon="34.93966">
<ele>303</ele>
<time>2021-06-02T01:37:26Z</time></trkpt>
<trkpt lat="31.66881" lon="34.9397">
<ele>303</ele>
<time>2021-06-02T01:37:29Z</time></trkpt>
<trkpt lat="31.66904" lon="34.93969">
<ele>303</ele>
<time>2021-06-02T01:37:34Z</time></trkpt>
<trkpt lat="31.66911" lon="34.93966">
<ele>304</ele>
<time>2021-06-02T01:37:36Z</time></trkpt>
<trkpt lat="31.66925" lon="34.93956">
<ele>304</ele>
<time>2021-06-02T01:37:39Z</time></trkpt>
<trkpt lat="31.66942" lon="34.93938">
<ele>305</ele>
<time>2021-06-02T01:37:43Z</time></trkpt>
<trkpt lat="31.6695" lon="34.93925">
<ele>305</ele>
<time>2021-06-02T01:37:46Z</time></trkpt>
<trkpt lat="31.66958" lon="34.93903">
<ele>306</ele>
<time>2021-06-02T01:37:50Z</time></trkpt>
<trkpt lat="31.66967" lon="34.93859">
<ele>306</ele>
<time>2021-06-02T01:37:58Z</time></trkpt>
<trkpt lat="31.6697" lon="34.9381">
<ele>307</ele>
<time>2021-06-02T01:38:06Z</time></trkpt>
<trkpt lat="31.6697" lon="34.93783">
<ele>308</ele>
<time>2021-06-02T01:38:11Z</time></trkpt>
<trkpt lat="31.66968" lon="34.93769">
<ele>309</ele>
<time>2021-06-02T01:38:13Z</time></trkpt>
<trkpt lat="31.66957" lon="34.93729">
<ele>310</ele>
<time>2021-06-02T01:38:21Z</time></trkpt>
<trkpt lat="31.66916" lon="34.93622">
<ele>311</ele>
<time>2021-06-02T01:38:41Z</time></trkpt>
<trkpt lat="31.66891" lon="34.93579">
<ele>312</ele>
<time>2021-06-02T01:38:49Z</time></trkpt>
<trkpt lat="31.6687" lon="34.93551">
<ele>310</ele>
<time>2021-06-02T01:38:56Z</time></trkpt>
<trkpt lat="31.66857" lon="34.93539">
<ele>311</ele>
<time>2021-06-02T01:38:59Z</time></trkpt>
<trkpt lat="31.66801" lon="34.93498">
<ele>311</ele>
<time>2021-06-02T01:39:12Z</time></trkpt>
<trkpt lat="31.66785" lon="34.9349">
<ele>311</ele>
<time>2021-06-02T01:39:16Z</time></trkpt>
<trkpt lat="31.66785" lon="34.93489">
<ele>311</ele>
<time>2021-06-02T01:39:16Z</time></trkpt>
<trkpt lat="31.66767" lon="34.9348">
<ele>311</ele>
<time>2021-06-02T01:39:20Z</time></trkpt>
<trkpt lat="31.66758" lon="34.93477">
<ele>311</ele>
<time>2021-06-02T01:39:22Z</time></trkpt>
<trkpt lat="31.66737" lon="34.93478">
<ele>312</ele>
<time>2021-06-02T01:39:26Z</time></trkpt>
<trkpt lat="31.66722" lon="34.93483">
<ele>312</ele>
<time>2021-06-02T01:39:29Z</time></trkpt>
<trkpt lat="31.6667" lon="34.93507">
<ele>313</ele>
<time>2021-06-02T01:39:40Z</time></trkpt>
<trkpt lat="31.66627" lon="34.93531">
<ele>312</ele>
<time>2021-06-02T01:39:50Z</time></trkpt>
<trkpt lat="31.66628" lon="34.93531">
<ele>312</ele>
<time>2021-06-02T01:39:50Z</time></trkpt>
<trkpt lat="31.66624" lon="34.93534">
<ele>312</ele>
<time>2021-06-02T01:39:51Z</time></trkpt>
<trkpt lat="31.66604" lon="34.93539">
<ele>311</ele>
<time>2021-06-02T01:39:55Z</time></trkpt>
<trkpt lat="31.66596" lon="34.93545">
<ele>310</ele>
<time>2021-06-02T01:39:57Z</time></trkpt>
<trkpt lat="31.66607" lon="34.93548">
<ele>311</ele>
<time>2021-06-02T01:39:59Z</time></trkpt>
<trkpt lat="31.66615" lon="34.93568">
<ele>312</ele>
<time>2021-06-02T01:40:03Z</time></trkpt>
<trkpt lat="31.66624" lon="34.93587">
<ele>313</ele>
<time>2021-06-02T01:40:07Z</time></trkpt>
<trkpt lat="31.66657" lon="34.93628">
<ele>318</ele>
<time>2021-06-02T01:40:16Z</time></trkpt>
<trkpt lat="31.66671" lon="34.93669">
<ele>321</ele>
<time>2021-06-02T01:40:24Z</time></trkpt>
<trkpt lat="31.66666" lon="34.93693">
<ele>322</ele>
<time>2021-06-02T01:40:28Z</time></trkpt>
<trkpt lat="31.6665" lon="34.93709">
<ele>321</ele>
<time>2021-06-02T01:40:32Z</time></trkpt>
<trkpt lat="31.66621" lon="34.93726">
<ele>319</ele>
<time>2021-06-02T01:40:39Z</time></trkpt>
<trkpt lat="31.66599" lon="34.93745">
<ele>320</ele>
<time>2021-06-02T01:40:44Z</time></trkpt>
<trkpt lat="31.66541" lon="34.93799">
<ele>321</ele>
<time>2021-06-02T01:40:59Z</time></trkpt>
<trkpt lat="31.66509" lon="34.9383">
<ele>321</ele>
<time>2021-06-02T01:41:07Z</time></trkpt>
<trkpt lat="31.66492" lon="34.93846">
<ele>321</ele>
<time>2021-06-02T01:41:12Z</time></trkpt>
<trkpt lat="31.66468" lon="34.93845">
<ele>320</ele>
<time>2021-06-02T01:41:17Z</time></trkpt>
<trkpt lat="31.66444" lon="34.93856">
<ele>320</ele>
<time>2021-06-02T01:41:22Z</time></trkpt>
<trkpt lat="31.66417" lon="34.93863">
<ele>320</ele>
<time>2021-06-02T01:41:27Z</time></trkpt>
<trkpt lat="31.66393" lon="34.93836">
<ele>318</ele>
<time>2021-06-02T01:41:34Z</time></trkpt>
<trkpt lat="31.66375" lon="34.9379">
<ele>311</ele>
<time>2021-06-02T01:41:43Z</time></trkpt>
<trkpt lat="31.66345" lon="34.9372">
<ele>302</ele>
<time>2021-06-02T01:41:56Z</time></trkpt>
<trkpt lat="31.66329" lon="34.93679">
<ele>296</ele>
<time>2021-06-02T01:42:04Z</time></trkpt>
</trkseg>
</trk>
</gpx>